N350JM SKBO-GOBD
Flight info
| Callsign | N350JM |
|---|---|
| Flight time | 7h 32m |
| Altitude | 31000 |
| Route | MAVDA UW20 AUC DCT MIQ UN669 ELJEZ/M082F310 DCT 2150N DCT 2340N DCT 22N036W DCT ERNEK/N0495F310 DCT EVKAS DCT BVT DCT MOGSA DCT PIVSA |
| Aircraft | B77L/H-SDE1E2E3FGHIJ2J3J4J5M1RWXY/LB1D1 |
Departure
| Time | 2026-04-25 12:54 |
|---|---|
| Airport | El Dorado International Airport (SKBO) |
Arrival
| Time | 2026-04-25 20:27 |
|---|---|
| Airport | Blaise Diagne International Airport (GOBD) |
| Time | Latitude | Longitude | Altitude | Speed | Heading |
|---|---|---|---|---|---|
| 2026-04-25 10:25 | 4.69299 | -74.14100 | 8370 ft | 0 kts | 37° |
| 2026-04-25 12:26 | 4.69282 | -74.14112 | 8370 ft | 4 kts | 37° |
| 2026-04-25 12:26 | 4.69260 | -74.14128 | 8370 ft | 3 kts | 37° |
| 2026-04-25 12:26 | 4.69241 | -74.14141 | 8370 ft | 4 kts | 14° |
| 2026-04-25 12:26 | 4.69218 | -74.14139 | 8370 ft | 4 kts | 320° |
| 2026-04-25 12:27 | 4.69201 | -74.14118 | 8370 ft | 4 kts | 303° |
| 2026-04-25 12:27 | 4.69192 | -74.14105 | 8370 ft | 0 kts | 307° |
| 2026-04-25 12:28 | 4.69214 | -74.14134 | 8370 ft | 14 kts | 307° |
| 2026-04-25 12:29 | 4.69261 | -74.14196 | 8370 ft | 17 kts | 306° |
| 2026-04-25 12:29 | 4.69358 | -74.14324 | 8369 ft | 17 kts | 309° |
| 2026-04-25 12:29 | 4.69431 | -74.14419 | 8369 ft | 17 kts | 305° |
| 2026-04-25 12:29 | 4.69477 | -74.14484 | 8369 ft | 17 kts | 306° |
| 2026-04-25 12:30 | 4.69550 | -74.14579 | 8369 ft | 17 kts | 307° |
| 2026-04-25 12:30 | 4.69646 | -74.14706 | 8369 ft | 17 kts | 308° |
| 2026-04-25 12:30 | 4.69718 | -74.14801 | 8369 ft | 17 kts | 307° |
| 2026-04-25 12:30 | 4.69767 | -74.14864 | 8369 ft | 17 kts | 307° |
| 2026-04-25 12:31 | 4.69858 | -74.14986 | 8369 ft | 16 kts | 307° |
| 2026-04-25 12:31 | 4.69905 | -74.15047 | 8369 ft | 16 kts | 307° |
| 2026-04-25 12:31 | 4.69974 | -74.15138 | 8369 ft | 16 kts | 307° |
| 2026-04-25 12:31 | 4.70043 | -74.15229 | 8369 ft | 16 kts | 306° |
| 2026-04-25 12:32 | 4.70113 | -74.15322 | 8368 ft | 19 kts | 307° |
| 2026-04-25 12:32 | 4.70204 | -74.15441 | 8368 ft | 22 kts | 307° |
| 2026-04-25 12:32 | 4.70295 | -74.15565 | 8367 ft | 22 kts | 309° |
| 2026-04-25 12:32 | 4.70391 | -74.15688 | 8368 ft | 23 kts | 307° |
| 2026-04-25 12:33 | 4.70487 | -74.15815 | 8368 ft | 23 kts | 307° |
| 2026-04-25 12:33 | 4.70583 | -74.15943 | 8367 ft | 24 kts | 307° |
| 2026-04-25 12:33 | 4.70698 | -74.16094 | 8367 ft | 26 kts | 307° |
| 2026-04-25 12:33 | 4.70807 | -74.16239 | 8368 ft | 26 kts | 307° |
| 2026-04-25 12:34 | 4.70897 | -74.16357 | 8367 ft | 16 kts | 307° |
| 2026-04-25 12:34 | 4.70963 | -74.16445 | 8367 ft | 16 kts | 307° |
| 2026-04-25 12:34 | 4.71028 | -74.16529 | 8367 ft | 13 kts | 307° |
| 2026-04-25 12:34 | 4.71065 | -74.16578 | 8367 ft | 12 kts | 307° |
| 2026-04-25 12:35 | 4.71122 | -74.16654 | 8367 ft | 0 kts | 307° |
| 2026-04-25 12:36 | 4.71129 | -74.16663 | 8367 ft | 7 kts | 307° |
| 2026-04-25 12:36 | 4.71148 | -74.16688 | 8366 ft | 0 kts | 307° |
| 2026-04-25 12:44 | 4.71158 | -74.16701 | 8366 ft | 3 kts | 307° |
| 2026-04-25 12:44 | 4.71161 | -74.16706 | 8366 ft | 1 kts | 307° |
| 2026-04-25 12:44 | 4.71191 | -74.16745 | 8367 ft | 4 kts | 307° |
| 2026-04-25 12:45 | 4.71203 | -74.16760 | 8366 ft | 0 kts | 307° |
| 2026-04-25 12:48 | 4.71206 | -74.16774 | 8366 ft | 7 kts | 275° |
| 2026-04-25 12:49 | 4.71175 | -74.16814 | 8366 ft | 0 kts | 221° |
| 2026-04-25 12:49 | 4.71157 | -74.16828 | 8366 ft | 7 kts | 217° |
| 2026-04-25 12:49 | 4.71153 | -74.16832 | 8366 ft | 0 kts | 217° |
| 2026-04-25 12:51 | 4.71146 | -74.16836 | 8366 ft | 0 kts | 217° |
| 2026-04-25 12:52 | 4.71141 | -74.16841 | 8366 ft | 6 kts | 217° |
| 2026-04-25 12:52 | 4.71080 | -74.16885 | 8365 ft | 12 kts | 212° |
| 2026-04-25 12:52 | 4.71026 | -74.16873 | 8366 ft | 8 kts | 126° |
| 2026-04-25 12:52 | 4.71003 | -74.16844 | 8366 ft | 0 kts | 127° |
| 2026-04-25 12:53 | 4.71002 | -74.16843 | 8366 ft | 2 kts | 127° |
| 2026-04-25 12:53 | 4.70926 | -74.16743 | 8366 ft | 46 kts | 127° |
| 2026-04-25 12:53 | 4.70580 | -74.16290 | 8369 ft | 116 kts | 128° |
| 2026-04-25 12:54 | 4.69966 | -74.15485 | 8368 ft | 173 kts | 127° |
| 2026-04-25 12:54 | 4.69167 | -74.14448 | 8692 ft | 195 kts | 126° |
| 2026-04-25 12:54 | 4.68331 | -74.13385 | 9416 ft | 194 kts | 137° |
| 2026-04-25 12:54 | 4.67109 | -74.12877 | 9910 ft | 197 kts | 185° |
| 2026-04-25 12:55 | 4.65844 | -74.13412 | 10162 ft | 211 kts | 227° |
| 2026-04-25 12:55 | 4.65313 | -74.14246 | 10296 ft | 221 kts | 245° |
| 2026-04-25 12:55 | 4.64331 | -74.16174 | 10747 ft | 240 kts | 240° |
| 2026-04-25 12:55 | 4.63468 | -74.17650 | 11326 ft | 248 kts | 239° |
| 2026-04-25 12:56 | 4.62566 | -74.19129 | 12103 ft | 249 kts | 238° |
| 2026-04-25 12:56 | 4.61677 | -74.20616 | 12926 ft | 248 kts | 246° |
| 2026-04-25 12:56 | 4.61213 | -74.22305 | 13434 ft | 261 kts | 259° |
| 2026-04-25 12:56 | 4.60868 | -74.24176 | 13640 ft | 291 kts | 259° |
| 2026-04-25 12:57 | 4.60453 | -74.26262 | 13847 ft | 318 kts | 254° |
| 2026-04-25 12:57 | 4.59427 | -74.28325 | 14025 ft | 347 kts | 230° |
| 2026-04-25 12:57 | 4.57690 | -74.30114 | 14199 ft | 372 kts | 224° |
| 2026-04-25 12:57 | 4.55813 | -74.31971 | 14703 ft | 387 kts | 225° |
| 2026-04-25 12:58 | 4.53899 | -74.33914 | 15408 ft | 395 kts | 226° |
| 2026-04-25 12:58 | 4.51902 | -74.35806 | 16108 ft | 399 kts | 217° |
| 2026-04-25 12:58 | 4.49401 | -74.37054 | 16772 ft | 406 kts | 198° |
| 2026-04-25 12:58 | 4.46749 | -74.37971 | 17302 ft | 406 kts | 208° |
| 2026-04-25 12:59 | 4.44414 | -74.39587 | 17779 ft | 411 kts | 218° |
| 2026-04-25 12:59 | 4.42051 | -74.41257 | 18451 ft | 419 kts | 213° |
| 2026-04-25 12:59 | 4.39549 | -74.42762 | 19162 ft | 419 kts | 207° |
| 2026-04-25 12:59 | 4.36762 | -74.43684 | 19773 ft | 427 kts | 189° |
| 2026-04-25 13:00 | 4.33780 | -74.43705 | 20401 ft | 433 kts | 169° |
| 2026-04-25 13:00 | 4.32833 | -74.43479 | 20629 ft | 435 kts | 162° |
| 2026-04-25 13:00 | 4.28701 | -74.40596 | 21763 ft | 442 kts | 126° |
| 2026-04-25 13:00 | 4.27307 | -74.37861 | 22432 ft | 445 kts | 105° |
| 2026-04-25 13:01 | 4.26972 | -74.34791 | 23094 ft | 447 kts | 84° |
| 2026-04-25 13:01 | 4.27746 | -74.31792 | 23734 ft | 449 kts | 64° |
| 2026-04-25 13:01 | 4.29523 | -74.29221 | 24121 ft | 451 kts | 45° |
| 2026-04-25 13:01 | 4.32050 | -74.27384 | 24111 ft | 449 kts | 25° |
| 2026-04-25 13:02 | 4.34937 | -74.26183 | 24132 ft | 450 kts | 23° |
| 2026-04-25 13:02 | 4.37566 | -74.24599 | 24137 ft | 451 kts | 42° |
| 2026-04-25 13:02 | 4.39524 | -74.22152 | 24176 ft | 450 kts | 59° |
| 2026-04-25 13:02 | 4.41201 | -74.19511 | 24208 ft | 451 kts | 54° |
| 2026-04-25 13:03 | 4.43117 | -74.17006 | 24241 ft | 455 kts | 51° |
| 2026-04-25 13:03 | 4.45163 | -74.14523 | 24267 ft | 458 kts | 50° |
| 2026-04-25 13:03 | 4.47205 | -74.12070 | 24283 ft | 458 kts | 50° |
| 2026-04-25 13:03 | 4.49201 | -74.09635 | 24294 ft | 458 kts | 51° |
| 2026-04-25 13:04 | 4.51217 | -74.07121 | 24306 ft | 456 kts | 51° |
| 2026-04-25 13:04 | 4.53154 | -74.04661 | 24316 ft | 454 kts | 52° |
| 2026-04-25 13:04 | 4.55117 | -74.02137 | 24315 ft | 453 kts | 52° |
| 2026-04-25 13:04 | 4.57016 | -73.99678 | 24313 ft | 451 kts | 52° |
| 2026-04-25 13:05 | 4.58934 | -73.97187 | 24313 ft | 450 kts | 52° |
| 2026-04-25 13:05 | 4.60844 | -73.94702 | 24302 ft | 450 kts | 52° |
| 2026-04-25 13:05 | 4.62753 | -73.92221 | 24277 ft | 450 kts | 52° |
| 2026-04-25 13:05 | 4.64665 | -73.89736 | 24276 ft | 450 kts | 52° |
| 2026-04-25 13:06 | 4.66577 | -73.87252 | 24270 ft | 450 kts | 52° |
| 2026-04-25 13:06 | 4.68491 | -73.84768 | 24263 ft | 451 kts | 52° |
| 2026-04-25 13:06 | 4.70412 | -73.82273 | 24250 ft | 452 kts | 52° |
| 2026-04-25 13:06 | 4.72332 | -73.79781 | 24238 ft | 452 kts | 52° |
| 2026-04-25 13:07 | 4.74255 | -73.77284 | 24220 ft | 453 kts | 52° |
| 2026-04-25 13:07 | 4.76180 | -73.74786 | 24200 ft | 453 kts | 52° |
| 2026-04-25 13:07 | 4.78105 | -73.72287 | 24179 ft | 454 kts | 52° |
| 2026-04-25 13:07 | 4.80035 | -73.69780 | 24166 ft | 454 kts | 52° |
| 2026-04-25 13:08 | 4.81965 | -73.67274 | 24166 ft | 454 kts | 52° |
| 2026-04-25 13:08 | 4.83892 | -73.64770 | 24159 ft | 454 kts | 52° |
| 2026-04-25 13:08 | 4.85825 | -73.62260 | 24156 ft | 454 kts | 52° |
| 2026-04-25 13:08 | 4.87750 | -73.59758 | 24160 ft | 453 kts | 52° |
| 2026-04-25 13:09 | 4.89677 | -73.57254 | 24151 ft | 453 kts | 52° |
| 2026-04-25 13:09 | 4.91603 | -73.54752 | 24149 ft | 453 kts | 52° |
| 2026-04-25 13:09 | 4.93524 | -73.52256 | 24154 ft | 452 kts | 52° |
| 2026-04-25 13:09 | 4.95445 | -73.49759 | 24149 ft | 452 kts | 52° |
| 2026-04-25 13:10 | 4.97365 | -73.47263 | 24143 ft | 452 kts | 52° |
| 2026-04-25 13:10 | 4.99285 | -73.44767 | 24142 ft | 452 kts | 52° |
| 2026-04-25 13:10 | 5.01204 | -73.42273 | 24138 ft | 452 kts | 52° |
| 2026-04-25 13:10 | 5.03127 | -73.39772 | 24138 ft | 452 kts | 52° |
| 2026-04-25 13:11 | 5.05043 | -73.37280 | 24139 ft | 452 kts | 52° |
| 2026-04-25 13:11 | 5.06938 | -73.34815 | 24136 ft | 452 kts | 52° |
| 2026-04-25 13:11 | 5.08881 | -73.32288 | 24136 ft | 452 kts | 52° |
| 2026-04-25 13:11 | 5.10778 | -73.29821 | 24136 ft | 452 kts | 52° |
| 2026-04-25 13:12 | 5.12697 | -73.27324 | 24139 ft | 452 kts | 52° |
| 2026-04-25 13:12 | 5.14619 | -73.24823 | 24138 ft | 452 kts | 52° |
| 2026-04-25 13:12 | 5.16539 | -73.22324 | 24132 ft | 452 kts | 52° |
| 2026-04-25 13:12 | 5.17191 | -73.21476 | 24138 ft | 452 kts | 52° |
| 2026-04-25 13:13 | 5.20378 | -73.17328 | 24145 ft | 452 kts | 52° |
| 2026-04-25 13:13 | 5.22306 | -73.14818 | 24529 ft | 455 kts | 52° |
| 2026-04-25 13:13 | 5.24240 | -73.12301 | 25144 ft | 456 kts | 52° |
| 2026-04-25 13:13 | 5.26179 | -73.09777 | 25736 ft | 458 kts | 53° |
| 2026-04-25 13:14 | 5.28133 | -73.07232 | 26246 ft | 462 kts | 53° |
| 2026-04-25 13:14 | 5.30104 | -73.04666 | 26731 ft | 467 kts | 53° |
| 2026-04-25 13:14 | 5.32089 | -73.02079 | 27247 ft | 470 kts | 53° |
| 2026-04-25 13:14 | 5.34094 | -72.99468 | 27767 ft | 474 kts | 53° |
| 2026-04-25 13:15 | 5.36112 | -72.96839 | 28298 ft | 477 kts | 53° |
| 2026-04-25 13:15 | 5.38139 | -72.94197 | 28812 ft | 480 kts | 53° |
| 2026-04-25 13:15 | 5.40184 | -72.91533 | 29323 ft | 484 kts | 53° |
| 2026-04-25 13:15 | 5.42248 | -72.88842 | 29813 ft | 487 kts | 54° |
| 2026-04-25 13:16 | 5.44322 | -72.86139 | 30239 ft | 491 kts | 54° |
| 2026-04-25 13:16 | 5.46407 | -72.83421 | 30616 ft | 494 kts | 54° |
| 2026-04-25 13:16 | 5.48508 | -72.80681 | 31006 ft | 496 kts | 54° |
| 2026-04-25 13:16 | 5.50616 | -72.77932 | 31163 ft | 497 kts | 54° |
| 2026-04-25 13:17 | 5.54824 | -72.72446 | 31163 ft | 495 kts | 54° |
| 2026-04-25 13:17 | 5.59027 | -72.66963 | 31150 ft | 495 kts | 54° |
| 2026-04-25 13:18 | 5.63229 | -72.61480 | 31143 ft | 496 kts | 54° |
| 2026-04-25 13:18 | 5.66719 | -72.56925 | 31139 ft | 496 kts | 54° |
| 2026-04-25 13:19 | 5.71637 | -72.50504 | 31135 ft | 496 kts | 54° |
| 2026-04-25 13:19 | 5.74425 | -72.46864 | 31130 ft | 497 kts | 54° |
| 2026-04-25 13:20 | 5.80035 | -72.39536 | 31122 ft | 497 kts | 54° |
| 2026-04-25 13:20 | 5.83563 | -72.34925 | 31111 ft | 497 kts | 54° |
| 2026-04-25 13:21 | 5.87780 | -72.29415 | 31101 ft | 498 kts | 54° |
| 2026-04-25 13:21 | 5.91970 | -72.23938 | 31099 ft | 498 kts | 54° |
| 2026-04-25 13:22 | 5.96216 | -72.18385 | 31080 ft | 498 kts | 54° |
| 2026-04-25 13:23 | 6.02504 | -72.10159 | 31081 ft | 497 kts | 54° |
| 2026-04-25 13:23 | 6.06709 | -72.04656 | 31067 ft | 496 kts | 54° |
| 2026-04-25 13:24 | 6.10929 | -71.99132 | 31373 ft | 501 kts | 54° |
| 2026-04-25 13:24 | 6.13040 | -71.96368 | 31980 ft | 497 kts | 55° |
| 2026-04-25 13:24 | 6.15128 | -71.93637 | 32749 ft | 489 kts | 55° |
| 2026-04-25 13:24 | 6.17190 | -71.90939 | 33514 ft | 483 kts | 55° |
| 2026-04-25 13:25 | 6.19229 | -71.88270 | 34191 ft | 479 kts | 55° |
| 2026-04-25 13:25 | 6.21249 | -71.85624 | 34700 ft | 477 kts | 55° |
| 2026-04-25 13:25 | 6.23272 | -71.82973 | 35053 ft | 479 kts | 55° |
| 2026-04-25 13:26 | 6.27352 | -71.77621 | 35024 ft | 482 kts | 55° |
| 2026-04-25 13:26 | 6.31404 | -71.72310 | 35019 ft | 476 kts | 55° |
| 2026-04-25 13:27 | 6.35428 | -71.67034 | 35021 ft | 476 kts | 55° |
| 2026-04-25 13:27 | 6.39453 | -71.61754 | 35020 ft | 476 kts | 55° |
| 2026-04-25 13:28 | 6.43480 | -71.56469 | 35014 ft | 477 kts | 55° |
| 2026-04-25 13:28 | 6.47516 | -71.51172 | 35007 ft | 478 kts | 54° |
| 2026-04-25 13:29 | 6.51566 | -71.45854 | 34996 ft | 479 kts | 54° |
| 2026-04-25 13:29 | 6.55613 | -71.40539 | 35006 ft | 489 kts | 54° |
| 2026-04-25 13:30 | 6.59805 | -71.35029 | 34989 ft | 501 kts | 54° |
| 2026-04-25 13:30 | 6.61932 | -71.32235 | 34983 ft | 503 kts | 54° |
| 2026-04-25 13:31 | 6.68308 | -71.23858 | 34980 ft | 502 kts | 54° |
| 2026-04-25 13:31 | 6.72552 | -71.18279 | 34982 ft | 502 kts | 54° |
| 2026-04-25 13:32 | 6.76794 | -71.12698 | 34983 ft | 502 kts | 54° |
| 2026-04-25 13:32 | 6.81033 | -71.07121 | 34984 ft | 502 kts | 54° |
| 2026-04-25 13:33 | 6.85276 | -71.01536 | 34980 ft | 502 kts | 53° |
| 2026-04-25 13:33 | 6.89515 | -70.95955 | 34984 ft | 502 kts | 53° |
| 2026-04-25 13:34 | 6.93760 | -70.90362 | 34989 ft | 503 kts | 53° |
| 2026-04-25 13:34 | 6.98007 | -70.84766 | 34990 ft | 503 kts | 54° |
| 2026-04-25 13:35 | 7.02230 | -70.79198 | 35005 ft | 504 kts | 54° |
| 2026-04-25 13:35 | 7.06499 | -70.73602 | 35006 ft | 504 kts | 52° |
| 2026-04-25 13:36 | 7.11261 | -70.68400 | 35007 ft | 505 kts | 47° |
| 2026-04-25 13:36 | 7.16184 | -70.63351 | 34989 ft | 506 kts | 46° |
| 2026-04-25 13:37 | 7.21105 | -70.58284 | 34984 ft | 506 kts | 47° |
| 2026-04-25 13:37 | 7.26008 | -70.53187 | 34981 ft | 506 kts | 47° |
| 2026-04-25 13:38 | 7.30895 | -70.48083 | 34997 ft | 506 kts | 47° |
| 2026-04-25 13:38 | 7.35777 | -70.42981 | 34980 ft | 506 kts | 47° |
| 2026-04-25 13:39 | 7.40662 | -70.37878 | 34978 ft | 506 kts | 47° |
| 2026-04-25 13:39 | 7.45538 | -70.32783 | 34995 ft | 505 kts | 47° |
| 2026-04-25 13:40 | 7.50416 | -70.27685 | 34997 ft | 505 kts | 47° |
| 2026-04-25 13:40 | 7.55297 | -70.22582 | 34982 ft | 505 kts | 47° |
| 2026-04-25 13:41 | 7.60178 | -70.17477 | 34983 ft | 505 kts | 47° |
| 2026-04-25 13:41 | 7.65058 | -70.12371 | 34984 ft | 506 kts | 47° |
| 2026-04-25 13:42 | 7.69941 | -70.07261 | 34999 ft | 506 kts | 47° |
| 2026-04-25 13:42 | 7.74825 | -70.02147 | 34996 ft | 506 kts | 47° |
| 2026-04-25 13:43 | 7.79714 | -69.97026 | 35000 ft | 507 kts | 47° |
| 2026-04-25 13:43 | 7.84604 | -69.91903 | 34986 ft | 507 kts | 47° |
| 2026-04-25 13:44 | 7.89471 | -69.86802 | 34983 ft | 508 kts | 47° |
| 2026-04-25 13:44 | 7.94372 | -69.81663 | 34983 ft | 508 kts | 47° |
| 2026-04-25 13:45 | 7.99278 | -69.76518 | 34986 ft | 509 kts | 47° |
| 2026-04-25 13:45 | 8.04185 | -69.71369 | 34998 ft | 509 kts | 47° |
| 2026-04-25 13:46 | 8.09106 | -69.66204 | 35103 ft | 513 kts | 47° |
| 2026-04-25 13:46 | 8.11577 | -69.63609 | 35460 ft | 512 kts | 47° |
| 2026-04-25 13:46 | 8.14035 | -69.61028 | 35934 ft | 509 kts | 47° |
| 2026-04-25 13:46 | 8.16477 | -69.58463 | 36377 ft | 506 kts | 47° |
| 2026-04-25 13:47 | 8.18913 | -69.55904 | 36803 ft | 504 kts | 47° |
| 2026-04-25 13:47 | 8.21336 | -69.53358 | 37162 ft | 503 kts | 47° |
| 2026-04-25 13:47 | 8.23760 | -69.50812 | 37489 ft | 503 kts | 47° |
| 2026-04-25 13:47 | 8.26182 | -69.48265 | 37799 ft | 503 kts | 47° |
| 2026-04-25 13:48 | 8.28608 | -69.45714 | 38132 ft | 503 kts | 47° |
| 2026-04-25 13:48 | 8.31030 | -69.43168 | 38453 ft | 502 kts | 47° |
| 2026-04-25 13:48 | 8.33448 | -69.40625 | 38761 ft | 502 kts | 47° |
| 2026-04-25 13:48 | 8.35865 | -69.38082 | 38909 ft | 503 kts | 47° |
| 2026-04-25 13:49 | 8.38297 | -69.35523 | 38956 ft | 506 kts | 47° |
| 2026-04-25 13:49 | 8.43166 | -69.30399 | 38998 ft | 505 kts | 47° |
| 2026-04-25 13:50 | 8.48020 | -69.25288 | 38994 ft | 504 kts | 47° |
| 2026-04-25 13:50 | 8.52868 | -69.20182 | 38998 ft | 503 kts | 47° |
| 2026-04-25 13:51 | 8.57702 | -69.15089 | 38995 ft | 502 kts | 47° |
| 2026-04-25 13:51 | 8.62539 | -69.09990 | 39000 ft | 502 kts | 47° |
| 2026-04-25 13:52 | 8.67379 | -69.04886 | 38997 ft | 503 kts | 47° |
| 2026-04-25 13:52 | 8.72189 | -68.99812 | 38999 ft | 503 kts | 47° |
| 2026-04-25 13:53 | 8.77068 | -68.94663 | 39000 ft | 504 kts | 47° |
| 2026-04-25 13:53 | 8.81887 | -68.89575 | 38996 ft | 504 kts | 47° |
| 2026-04-25 13:54 | 8.86737 | -68.84452 | 38997 ft | 505 kts | 47° |
| 2026-04-25 13:54 | 8.91595 | -68.79319 | 38995 ft | 505 kts | 47° |
| 2026-04-25 13:55 | 8.96483 | -68.74153 | 38995 ft | 505 kts | 47° |
| 2026-04-25 13:55 | 9.01335 | -68.69021 | 38994 ft | 505 kts | 47° |
| 2026-04-25 13:56 | 9.06186 | -68.63889 | 38993 ft | 505 kts | 47° |
| 2026-04-25 13:56 | 9.11002 | -68.58792 | 38996 ft | 504 kts | 47° |
| 2026-04-25 13:57 | 9.15848 | -68.53661 | 38995 ft | 504 kts | 47° |
| 2026-04-25 13:57 | 9.20688 | -68.48534 | 38991 ft | 504 kts | 47° |
| 2026-04-25 13:58 | 9.25529 | -68.43404 | 38990 ft | 504 kts | 47° |
| 2026-04-25 13:58 | 9.30366 | -68.38276 | 38992 ft | 503 kts | 47° |
| 2026-04-25 13:59 | 9.35206 | -68.33142 | 38994 ft | 504 kts | 47° |
| 2026-04-25 13:59 | 9.40042 | -68.28011 | 38997 ft | 504 kts | 47° |
| 2026-04-25 14:00 | 9.44880 | -68.22875 | 38987 ft | 504 kts | 47° |
| 2026-04-25 14:00 | 9.49724 | -68.17730 | 38997 ft | 504 kts | 47° |
| 2026-04-25 14:01 | 9.54565 | -68.12587 | 38997 ft | 504 kts | 47° |
| 2026-04-25 14:01 | 9.59407 | -68.07440 | 39002 ft | 505 kts | 47° |
| 2026-04-25 14:02 | 9.64257 | -68.02282 | 39003 ft | 505 kts | 47° |
| 2026-04-25 14:02 | 9.69105 | -67.97124 | 39002 ft | 506 kts | 47° |
| 2026-04-25 14:03 | 9.73958 | -67.91959 | 39009 ft | 506 kts | 47° |
| 2026-04-25 14:03 | 9.78779 | -67.86826 | 39008 ft | 506 kts | 47° |
| 2026-04-25 14:04 | 9.83637 | -67.81650 | 39011 ft | 507 kts | 48° |
| 2026-04-25 14:04 | 9.88496 | -67.76471 | 39025 ft | 507 kts | 48° |
| 2026-04-25 14:05 | 9.93356 | -67.71290 | 39018 ft | 507 kts | 48° |
| 2026-04-25 14:05 | 9.98216 | -67.66105 | 39019 ft | 508 kts | 48° |
| 2026-04-25 14:06 | 10.03082 | -67.60911 | 39019 ft | 508 kts | 48° |
| 2026-04-25 14:06 | 10.07955 | -67.55707 | 39018 ft | 508 kts | 48° |
| 2026-04-25 14:07 | 10.12824 | -67.50505 | 39013 ft | 509 kts | 48° |
| 2026-04-25 14:07 | 10.17695 | -67.45300 | 39026 ft | 509 kts | 48° |
| 2026-04-25 14:08 | 10.21746 | -67.40968 | 39020 ft | 509 kts | 48° |
| 2026-04-25 14:08 | 10.26622 | -67.35751 | 39019 ft | 509 kts | 48° |
| 2026-04-25 14:09 | 10.31500 | -67.30530 | 39019 ft | 510 kts | 48° |
| 2026-04-25 14:09 | 10.36387 | -67.25296 | 39009 ft | 511 kts | 48° |
| 2026-04-25 14:10 | 10.41278 | -67.20056 | 39004 ft | 511 kts | 48° |
| 2026-04-25 14:10 | 10.46172 | -67.14810 | 38984 ft | 512 kts | 48° |
| 2026-04-25 14:11 | 10.51069 | -67.09557 | 38972 ft | 512 kts | 48° |
| 2026-04-25 14:11 | 10.55959 | -67.04308 | 38976 ft | 512 kts | 48° |
| 2026-04-25 14:12 | 10.60802 | -66.98999 | 38967 ft | 511 kts | 52° |
| 2026-04-25 14:12 | 10.64938 | -66.93157 | 38972 ft | 509 kts | 58° |
| 2026-04-25 14:13 | 10.68863 | -66.87146 | 38979 ft | 511 kts | 58° |
| 2026-04-25 14:13 | 10.72814 | -66.81136 | 38967 ft | 512 kts | 58° |
| 2026-04-25 14:14 | 10.76797 | -66.75141 | 38973 ft | 512 kts | 58° |
| 2026-04-25 14:14 | 10.80801 | -66.69131 | 38968 ft | 513 kts | 58° |
| 2026-04-25 14:15 | 10.84799 | -66.63122 | 38967 ft | 513 kts | 58° |
| 2026-04-25 14:15 | 10.88804 | -66.57097 | 38959 ft | 514 kts | 58° |
| 2026-04-25 14:16 | 10.92804 | -66.51073 | 38963 ft | 514 kts | 58° |
| 2026-04-25 14:16 | 10.96803 | -66.45046 | 38962 ft | 514 kts | 58° |
| 2026-04-25 14:17 | 11.00779 | -66.39051 | 38962 ft | 514 kts | 58° |
| 2026-04-25 14:17 | 11.04794 | -66.33033 | 38962 ft | 514 kts | 57° |
| 2026-04-25 14:18 | 11.08870 | -66.27044 | 38966 ft | 514 kts | 57° |
| 2026-04-25 14:18 | 11.12943 | -66.21069 | 38963 ft | 514 kts | 57° |
| 2026-04-25 14:19 | 11.17002 | -66.15090 | 38966 ft | 513 kts | 57° |
| 2026-04-25 14:19 | 11.21050 | -66.09114 | 38964 ft | 512 kts | 57° |
| 2026-04-25 14:20 | 11.25094 | -66.03138 | 38968 ft | 512 kts | 57° |
| 2026-04-25 14:20 | 11.29131 | -65.97172 | 38964 ft | 511 kts | 57° |
| 2026-04-25 14:21 | 11.33165 | -65.91207 | 38965 ft | 511 kts | 57° |
| 2026-04-25 14:21 | 11.37193 | -65.85246 | 38966 ft | 511 kts | 57° |
| 2026-04-25 14:22 | 11.41217 | -65.79286 | 38968 ft | 511 kts | 57° |
| 2026-04-25 14:22 | 11.45244 | -65.73322 | 38964 ft | 511 kts | 57° |
| 2026-04-25 14:23 | 11.49271 | -65.67351 | 38969 ft | 511 kts | 57° |
| 2026-04-25 14:23 | 11.53299 | -65.61372 | 38966 ft | 512 kts | 57° |
| 2026-04-25 14:24 | 11.57331 | -65.55382 | 38971 ft | 512 kts | 57° |
| 2026-04-25 14:24 | 11.61340 | -65.49421 | 38969 ft | 513 kts | 57° |
| 2026-04-25 14:25 | 11.65404 | -65.43375 | 38970 ft | 514 kts | 57° |
| 2026-04-25 14:25 | 11.69469 | -65.37364 | 38971 ft | 515 kts | 56° |
| 2026-04-25 14:26 | 11.73619 | -65.31381 | 38967 ft | 516 kts | 56° |
| 2026-04-25 14:26 | 11.77753 | -65.25440 | 38966 ft | 517 kts | 56° |
| 2026-04-25 14:27 | 11.81908 | -65.19441 | 38971 ft | 518 kts | 56° |
| 2026-04-25 14:27 | 11.86066 | -65.13421 | 38969 ft | 519 kts | 56° |
| 2026-04-25 14:28 | 11.90224 | -65.07393 | 38969 ft | 520 kts | 56° |
| 2026-04-25 14:28 | 11.94389 | -65.01354 | 38970 ft | 521 kts | 56° |
| 2026-04-25 14:29 | 11.98559 | -64.95304 | 38967 ft | 521 kts | 56° |
| 2026-04-25 14:29 | 12.02737 | -64.89240 | 38967 ft | 522 kts | 56° |
| 2026-04-25 14:30 | 12.06916 | -64.83170 | 38970 ft | 522 kts | 56° |
| 2026-04-25 14:30 | 12.13189 | -64.74052 | 38972 ft | 523 kts | 56° |
| 2026-04-25 14:31 | 12.17372 | -64.67966 | 38972 ft | 523 kts | 56° |
| 2026-04-25 14:31 | 12.21554 | -64.61877 | 38974 ft | 524 kts | 56° |
| 2026-04-25 14:32 | 12.25740 | -64.55779 | 38973 ft | 524 kts | 56° |
| 2026-04-25 14:32 | 12.29919 | -64.49686 | 38971 ft | 523 kts | 56° |
| 2026-04-25 14:33 | 12.34097 | -64.43591 | 38974 ft | 523 kts | 56° |
| 2026-04-25 14:33 | 12.38263 | -64.37489 | 38975 ft | 523 kts | 57° |
| 2026-04-25 14:34 | 12.42391 | -64.31372 | 38975 ft | 522 kts | 57° |
| 2026-04-25 14:34 | 12.46508 | -64.25256 | 38972 ft | 522 kts | 57° |
| 2026-04-25 14:35 | 12.50630 | -64.19138 | 38972 ft | 522 kts | 57° |
| 2026-04-25 14:35 | 12.54747 | -64.13028 | 38976 ft | 521 kts | 57° |
| 2026-04-25 14:36 | 12.58837 | -64.06956 | 38975 ft | 521 kts | 57° |
| 2026-04-25 14:36 | 12.62946 | -64.00849 | 38975 ft | 521 kts | 57° |
| 2026-04-25 14:37 | 12.67051 | -63.94745 | 38979 ft | 520 kts | 57° |
| 2026-04-25 14:37 | 12.71150 | -63.88644 | 38977 ft | 520 kts | 57° |
| 2026-04-25 14:38 | 12.75251 | -63.82536 | 38983 ft | 520 kts | 57° |
| 2026-04-25 14:38 | 12.79346 | -63.76433 | 38981 ft | 520 kts | 57° |
| 2026-04-25 14:39 | 12.83452 | -63.70329 | 38982 ft | 520 kts | 57° |
| 2026-04-25 14:39 | 12.87623 | -63.64268 | 38980 ft | 521 kts | 53° |
| 2026-04-25 14:40 | 12.92212 | -63.58508 | 38983 ft | 522 kts | 51° |
| 2026-04-25 14:40 | 12.96870 | -63.52802 | 38980 ft | 522 kts | 51° |
| 2026-04-25 14:41 | 13.01516 | -63.47068 | 38983 ft | 523 kts | 51° |
| 2026-04-25 14:41 | 13.06139 | -63.41313 | 38979 ft | 523 kts | 51° |
| 2026-04-25 14:42 | 13.09197 | -63.37494 | 38983 ft | 523 kts | 51° |
| 2026-04-25 14:42 | 13.15348 | -63.29808 | 38982 ft | 524 kts | 51° |
| 2026-04-25 14:43 | 13.19972 | -63.24029 | 38983 ft | 524 kts | 51° |
| 2026-04-25 14:43 | 13.24596 | -63.18249 | 38985 ft | 524 kts | 51° |
| 2026-04-25 14:44 | 13.29219 | -63.12466 | 38986 ft | 524 kts | 51° |
| 2026-04-25 14:44 | 13.33839 | -63.06683 | 38986 ft | 524 kts | 51° |
| 2026-04-25 14:45 | 13.38453 | -63.00902 | 38983 ft | 523 kts | 51° |
| 2026-04-25 14:45 | 13.43064 | -62.95123 | 38986 ft | 523 kts | 51° |
| 2026-04-25 14:46 | 13.47677 | -62.89337 | 38985 ft | 523 kts | 51° |
| 2026-04-25 14:46 | 13.52282 | -62.83557 | 38983 ft | 523 kts | 52° |
| 2026-04-25 14:47 | 13.55362 | -62.79689 | 38986 ft | 522 kts | 52° |
| 2026-04-25 14:47 | 13.61482 | -62.71997 | 38991 ft | 522 kts | 52° |
| 2026-04-25 14:48 | 13.66082 | -62.66211 | 38986 ft | 522 kts | 52° |
| 2026-04-25 14:48 | 13.70679 | -62.60426 | 38985 ft | 523 kts | 52° |
| 2026-04-25 14:49 | 13.75280 | -62.54630 | 38991 ft | 523 kts | 52° |
| 2026-04-25 14:49 | 13.79876 | -62.48838 | 38984 ft | 523 kts | 52° |
| 2026-04-25 14:50 | 13.84446 | -62.43073 | 38989 ft | 523 kts | 52° |
| 2026-04-25 14:50 | 13.89052 | -62.37261 | 38989 ft | 524 kts | 52° |
| 2026-04-25 14:51 | 13.93655 | -62.31447 | 38986 ft | 524 kts | 52° |
| 2026-04-25 14:51 | 13.98262 | -62.25625 | 38987 ft | 525 kts | 52° |
| 2026-04-25 14:52 | 14.02873 | -62.19792 | 38988 ft | 525 kts | 52° |
| 2026-04-25 14:52 | 14.05960 | -62.15886 | 38991 ft | 526 kts | 52° |
| 2026-04-25 14:53 | 14.12108 | -62.08100 | 38995 ft | 527 kts | 52° |
| 2026-04-25 14:53 | 14.16732 | -62.02240 | 38987 ft | 527 kts | 52° |
| 2026-04-25 14:54 | 14.21361 | -61.96369 | 38987 ft | 528 kts | 52° |
| 2026-04-25 14:54 | 14.25988 | -61.90496 | 38989 ft | 528 kts | 52° |
| 2026-04-25 14:55 | 14.30621 | -61.84611 | 38987 ft | 529 kts | 52° |
| 2026-04-25 14:55 | 14.35262 | -61.78712 | 38990 ft | 529 kts | 52° |
| 2026-04-25 14:56 | 14.39897 | -61.72816 | 38991 ft | 529 kts | 52° |
| 2026-04-25 14:56 | 14.43750 | -61.67911 | 38989 ft | 529 kts | 52° |
| 2026-04-25 14:57 | 14.49168 | -61.61010 | 38987 ft | 529 kts | 52° |
| 2026-04-25 14:57 | 14.53018 | -61.56102 | 38989 ft | 529 kts | 52° |
| 2026-04-25 14:58 | 14.57654 | -61.50188 | 38988 ft | 529 kts | 52° |
| 2026-04-25 14:58 | 14.63034 | -61.43320 | 38995 ft | 529 kts | 52° |
| 2026-04-25 14:59 | 14.66910 | -61.38367 | 38994 ft | 529 kts | 52° |
| 2026-04-25 14:59 | 14.71533 | -61.32457 | 38995 ft | 529 kts | 52° |
| 2026-04-25 15:00 | 14.76128 | -61.26576 | 38994 ft | 529 kts | 52° |
| 2026-04-25 15:00 | 14.80748 | -61.20658 | 38992 ft | 529 kts | 52° |
| 2026-04-25 15:01 | 14.85369 | -61.14735 | 38988 ft | 530 kts | 51° |
| 2026-04-25 15:01 | 14.89994 | -61.08806 | 39011 ft | 530 kts | 51° |
| 2026-04-25 15:02 | 14.94620 | -61.02877 | 38997 ft | 530 kts | 51° |
| 2026-04-25 15:02 | 14.99249 | -60.96939 | 39000 ft | 531 kts | 51° |
| 2026-04-25 15:03 | 15.03883 | -60.90987 | 39002 ft | 531 kts | 51° |
| 2026-04-25 15:03 | 15.08512 | -60.85034 | 39003 ft | 531 kts | 51° |
| 2026-04-25 15:04 | 15.13139 | -60.79080 | 39002 ft | 531 kts | 51° |
| 2026-04-25 15:04 | 15.17772 | -60.73113 | 39001 ft | 531 kts | 51° |
| 2026-04-25 15:05 | 15.22402 | -60.67146 | 39005 ft | 531 kts | 51° |
| 2026-04-25 15:06 | 15.29345 | -60.58190 | 39002 ft | 532 kts | 51° |
| 2026-04-25 15:06 | 15.33970 | -60.52217 | 39003 ft | 531 kts | 51° |
| 2026-04-25 15:07 | 15.38598 | -60.46237 | 39003 ft | 531 kts | 51° |
| 2026-04-25 15:07 | 15.43218 | -60.40262 | 39004 ft | 531 kts | 51° |
| 2026-04-25 15:08 | 15.47840 | -60.34280 | 39005 ft | 531 kts | 51° |
| 2026-04-25 15:08 | 15.52421 | -60.28346 | 39006 ft | 531 kts | 51° |
| 2026-04-25 15:09 | 15.57040 | -60.22358 | 39007 ft | 531 kts | 51° |
| 2026-04-25 15:09 | 15.63957 | -60.13381 | 39007 ft | 531 kts | 51° |
| 2026-04-25 15:10 | 15.68570 | -60.07388 | 39007 ft | 531 kts | 51° |
| 2026-04-25 15:11 | 15.75491 | -59.98389 | 39006 ft | 532 kts | 51° |
| 2026-04-25 15:11 | 15.80099 | -59.92391 | 39010 ft | 532 kts | 51° |
| 2026-04-25 15:12 | 15.87020 | -59.83373 | 39010 ft | 532 kts | 51° |
| 2026-04-25 15:12 | 15.90852 | -59.78375 | 39009 ft | 533 kts | 51° |
| 2026-04-25 15:13 | 15.98562 | -59.68308 | 39010 ft | 534 kts | 51° |
| 2026-04-25 15:14 | 16.03185 | -59.62265 | 39008 ft | 534 kts | 51° |
| 2026-04-25 15:14 | 16.07806 | -59.56219 | 39009 ft | 534 kts | 51° |
| 2026-04-25 15:15 | 16.12427 | -59.50166 | 39009 ft | 535 kts | 51° |
| 2026-04-25 15:15 | 16.17025 | -59.44141 | 39007 ft | 535 kts | 51° |
| 2026-04-25 15:16 | 16.21680 | -59.38042 | 39010 ft | 535 kts | 51° |
| 2026-04-25 15:16 | 16.28622 | -59.28931 | 39011 ft | 535 kts | 51° |
| 2026-04-25 15:17 | 16.35554 | -59.19818 | 39013 ft | 535 kts | 51° |
| 2026-04-25 15:18 | 16.40142 | -59.13778 | 39015 ft | 535 kts | 51° |
| 2026-04-25 15:18 | 16.47073 | -59.04646 | 39012 ft | 536 kts | 51° |
| 2026-04-25 15:19 | 16.50941 | -58.99545 | 39015 ft | 536 kts | 51° |
| 2026-04-25 15:19 | 16.56306 | -58.92462 | 39015 ft | 536 kts | 51° |
| 2026-04-25 15:20 | 16.60921 | -58.86365 | 39015 ft | 536 kts | 51° |
| 2026-04-25 15:20 | 16.65536 | -58.80262 | 39013 ft | 536 kts | 51° |
| 2026-04-25 15:21 | 16.70153 | -58.74151 | 39015 ft | 536 kts | 51° |
| 2026-04-25 15:21 | 16.74768 | -58.68038 | 39019 ft | 536 kts | 51° |
| 2026-04-25 15:22 | 16.79380 | -58.61923 | 39016 ft | 536 kts | 51° |
| 2026-04-25 15:22 | 16.83988 | -58.55808 | 39018 ft | 536 kts | 51° |
| 2026-04-25 15:23 | 16.88600 | -58.49682 | 39023 ft | 536 kts | 51° |
| 2026-04-25 15:23 | 16.93204 | -58.43562 | 39023 ft | 536 kts | 51° |
| 2026-04-25 15:24 | 16.97813 | -58.37429 | 39012 ft | 536 kts | 51° |
| 2026-04-25 15:24 | 17.01639 | -58.32335 | 39026 ft | 536 kts | 51° |
| 2026-04-25 15:25 | 17.06991 | -58.25201 | 39028 ft | 536 kts | 51° |
| 2026-04-25 15:25 | 17.11591 | -58.19063 | 39013 ft | 536 kts | 51° |
| 2026-04-25 15:26 | 17.16191 | -58.12921 | 39013 ft | 537 kts | 51° |
| 2026-04-25 15:26 | 17.20793 | -58.06770 | 39016 ft | 537 kts | 51° |
| 2026-04-25 15:27 | 17.25392 | -58.00618 | 39035 ft | 537 kts | 51° |
| 2026-04-25 15:28 | 17.32288 | -57.91382 | 39021 ft | 537 kts | 51° |
| 2026-04-25 15:28 | 17.36887 | -57.85216 | 39028 ft | 537 kts | 51° |
| 2026-04-25 15:29 | 17.41481 | -57.79050 | 39025 ft | 537 kts | 51° |
| 2026-04-25 15:29 | 17.46077 | -57.72876 | 39026 ft | 538 kts | 51° |
| 2026-04-25 15:30 | 17.50676 | -57.66692 | 39028 ft | 538 kts | 51° |
| 2026-04-25 15:30 | 17.55269 | -57.60509 | 39029 ft | 538 kts | 51° |
| 2026-04-25 15:31 | 17.59863 | -57.54319 | 39032 ft | 538 kts | 51° |
| 2026-04-25 15:31 | 17.64460 | -57.48120 | 39029 ft | 538 kts | 51° |
| 2026-04-25 15:32 | 17.69057 | -57.41922 | 39031 ft | 539 kts | 51° |
| 2026-04-25 15:32 | 17.73622 | -57.35758 | 39036 ft | 539 kts | 51° |
| 2026-04-25 15:33 | 17.80547 | -57.26392 | 39030 ft | 539 kts | 51° |
| 2026-04-25 15:33 | 17.85105 | -57.20219 | 39033 ft | 539 kts | 51° |
| 2026-04-25 15:34 | 17.89702 | -57.13987 | 39036 ft | 539 kts | 51° |
| 2026-04-25 15:34 | 17.92774 | -57.09819 | 39033 ft | 539 kts | 51° |
| 2026-04-25 15:35 | 18.00864 | -56.98170 | 39036 ft | 540 kts | 60° |
| 2026-04-25 15:36 | 18.05774 | -56.87530 | 39038 ft | 540 kts | 65° |
| 2026-04-25 15:36 | 18.08946 | -56.80383 | 39034 ft | 540 kts | 65° |
| 2026-04-25 15:37 | 18.12158 | -56.73244 | 39034 ft | 540 kts | 65° |
| 2026-04-25 15:37 | 18.15391 | -56.66111 | 39035 ft | 540 kts | 65° |
| 2026-04-25 15:38 | 18.18629 | -56.58973 | 39034 ft | 540 kts | 65° |
| 2026-04-25 15:38 | 18.21856 | -56.51840 | 39036 ft | 541 kts | 65° |
| 2026-04-25 15:39 | 18.25084 | -56.44694 | 39033 ft | 541 kts | 65° |
| 2026-04-25 15:39 | 18.28308 | -56.37545 | 39036 ft | 541 kts | 65° |
| 2026-04-25 15:40 | 18.30442 | -56.32809 | 39034 ft | 541 kts | 65° |
| 2026-04-25 15:40 | 18.34752 | -56.23232 | 39041 ft | 541 kts | 65° |
| 2026-04-25 15:41 | 18.37969 | -56.16072 | 39037 ft | 541 kts | 65° |
| 2026-04-25 15:41 | 18.41168 | -56.08947 | 39041 ft | 542 kts | 65° |
| 2026-04-25 15:42 | 18.44383 | -56.01774 | 39044 ft | 542 kts | 65° |
| 2026-04-25 15:42 | 18.47597 | -55.94597 | 39041 ft | 542 kts | 65° |
| 2026-04-25 15:43 | 18.50810 | -55.87414 | 39040 ft | 542 kts | 65° |
| 2026-04-25 15:43 | 18.54021 | -55.80226 | 39039 ft | 542 kts | 65° |
| 2026-04-25 15:44 | 18.57230 | -55.73032 | 39041 ft | 542 kts | 65° |
| 2026-04-25 15:44 | 18.60439 | -55.65832 | 39045 ft | 543 kts | 65° |
| 2026-04-25 15:45 | 18.63646 | -55.58626 | 39046 ft | 543 kts | 65° |
| 2026-04-25 15:45 | 18.65789 | -55.53805 | 39044 ft | 543 kts | 65° |
| 2026-04-25 15:46 | 18.69509 | -55.45428 | 39045 ft | 543 kts | 65° |
| 2026-04-25 15:46 | 18.73250 | -55.36994 | 39047 ft | 543 kts | 65° |
| 2026-04-25 15:47 | 18.75904 | -55.31000 | 39044 ft | 543 kts | 65° |
| 2026-04-25 15:47 | 18.79097 | -55.23785 | 39046 ft | 543 kts | 65° |
| 2026-04-25 15:48 | 18.82288 | -55.16561 | 39049 ft | 543 kts | 65° |
| 2026-04-25 15:48 | 18.85477 | -55.09335 | 39044 ft | 543 kts | 65° |
| 2026-04-25 15:49 | 18.88663 | -55.02107 | 39047 ft | 543 kts | 65° |
| 2026-04-25 15:49 | 18.91846 | -54.94876 | 39044 ft | 543 kts | 65° |
| 2026-04-25 15:50 | 18.95029 | -54.87636 | 39050 ft | 543 kts | 65° |
| 2026-04-25 15:50 | 18.98209 | -54.80394 | 39051 ft | 543 kts | 65° |
| 2026-04-25 15:51 | 19.00852 | -54.74368 | 39049 ft | 544 kts | 65° |
| 2026-04-25 15:51 | 19.04561 | -54.65898 | 39049 ft | 544 kts | 65° |
| 2026-04-25 15:52 | 19.07737 | -54.58639 | 39050 ft | 544 kts | 65° |
| 2026-04-25 15:52 | 19.10905 | -54.51385 | 39048 ft | 544 kts | 65° |
| 2026-04-25 15:53 | 19.14074 | -54.44123 | 39050 ft | 544 kts | 65° |
| 2026-04-25 15:53 | 19.17238 | -54.36862 | 39048 ft | 544 kts | 65° |
| 2026-04-25 15:54 | 19.20401 | -54.29593 | 39054 ft | 544 kts | 65° |
| 2026-04-25 15:54 | 19.23542 | -54.22366 | 39054 ft | 544 kts | 65° |
| 2026-04-25 15:55 | 19.26722 | -54.15040 | 39055 ft | 544 kts | 65° |
| 2026-04-25 15:55 | 19.29875 | -54.07767 | 39053 ft | 544 kts | 65° |
| 2026-04-25 15:56 | 19.33029 | -54.00482 | 39053 ft | 544 kts | 65° |
| 2026-04-25 15:56 | 19.36159 | -53.93242 | 39057 ft | 544 kts | 65° |
| 2026-04-25 15:57 | 19.39306 | -53.85953 | 39055 ft | 544 kts | 65° |
| 2026-04-25 15:57 | 19.42453 | -53.78655 | 39056 ft | 544 kts | 65° |
| 2026-04-25 15:58 | 19.45595 | -53.71360 | 39060 ft | 544 kts | 65° |
| 2026-04-25 15:58 | 19.48735 | -53.64059 | 39061 ft | 544 kts | 65° |
| 2026-04-25 15:59 | 19.51875 | -53.56748 | 39058 ft | 544 kts | 65° |
| 2026-04-25 15:59 | 19.55009 | -53.49442 | 39059 ft | 544 kts | 65° |
| 2026-04-25 16:00 | 19.57103 | -53.44555 | 39058 ft | 544 kts | 65° |
| 2026-04-25 16:00 | 19.61269 | -53.34819 | 39054 ft | 545 kts | 65° |
| 2026-04-25 16:01 | 19.64398 | -53.27497 | 39060 ft | 545 kts | 65° |
| 2026-04-25 16:01 | 19.67521 | -53.20177 | 39065 ft | 545 kts | 65° |
| 2026-04-25 16:02 | 19.70641 | -53.12854 | 39061 ft | 545 kts | 65° |
| 2026-04-25 16:02 | 19.73764 | -53.05516 | 39058 ft | 545 kts | 65° |
| 2026-04-25 16:03 | 19.76881 | -52.98180 | 39058 ft | 545 kts | 65° |
| 2026-04-25 16:03 | 19.79996 | -52.90842 | 39061 ft | 545 kts | 65° |
| 2026-04-25 16:04 | 19.83109 | -52.83496 | 39058 ft | 546 kts | 65° |
| 2026-04-25 16:04 | 19.86202 | -52.76187 | 39060 ft | 546 kts | 65° |
| 2026-04-25 16:05 | 19.89310 | -52.68835 | 39059 ft | 546 kts | 65° |
| 2026-04-25 16:06 | 19.93972 | -52.57786 | 39057 ft | 546 kts | 65° |
| 2026-04-25 16:06 | 19.97080 | -52.50408 | 39059 ft | 547 kts | 65° |
| 2026-04-25 16:07 | 20.00182 | -52.43033 | 39063 ft | 547 kts | 65° |
| 2026-04-25 16:07 | 20.03284 | -52.35650 | 39064 ft | 547 kts | 65° |
| 2026-04-25 16:08 | 20.06384 | -52.28258 | 39063 ft | 547 kts | 65° |
| 2026-04-25 16:08 | 20.09484 | -52.20859 | 39061 ft | 547 kts | 65° |
| 2026-04-25 16:09 | 20.12576 | -52.13467 | 39060 ft | 547 kts | 65° |
| 2026-04-25 16:09 | 20.15672 | -52.06056 | 39064 ft | 548 kts | 65° |
| 2026-04-25 16:10 | 20.18763 | -51.98647 | 39059 ft | 548 kts | 65° |
| 2026-04-25 16:10 | 20.21851 | -51.91233 | 39059 ft | 548 kts | 65° |
| 2026-04-25 16:11 | 20.24939 | -51.83810 | 39056 ft | 548 kts | 65° |
| 2026-04-25 16:11 | 20.28004 | -51.76433 | 39049 ft | 548 kts | 65° |
| 2026-04-25 16:12 | 20.31086 | -51.69002 | 39055 ft | 549 kts | 65° |
| 2026-04-25 16:12 | 20.34168 | -51.61560 | 39068 ft | 549 kts | 65° |
| 2026-04-25 16:13 | 20.37247 | -51.54118 | 39066 ft | 549 kts | 65° |
| 2026-04-25 16:13 | 20.40327 | -51.46660 | 39051 ft | 549 kts | 65° |
| 2026-04-25 16:14 | 20.43401 | -51.39208 | 39056 ft | 550 kts | 65° |
| 2026-04-25 16:14 | 20.46475 | -51.31745 | 39058 ft | 550 kts | 65° |
| 2026-04-25 16:15 | 20.49548 | -51.24271 | 39062 ft | 550 kts | 65° |
| 2026-04-25 16:15 | 20.52616 | -51.16801 | 39064 ft | 550 kts | 65° |
| 2026-04-25 16:16 | 20.55686 | -51.09316 | 39061 ft | 551 kts | 65° |
| 2026-04-25 16:16 | 20.58753 | -51.01827 | 39059 ft | 551 kts | 65° |
| 2026-04-25 16:17 | 20.61815 | -50.94337 | 39060 ft | 551 kts | 65° |
| 2026-04-25 16:17 | 20.64878 | -50.86835 | 39062 ft | 551 kts | 65° |
| 2026-04-25 16:18 | 20.67939 | -50.79328 | 39061 ft | 551 kts | 65° |
| 2026-04-25 16:18 | 20.70999 | -50.71812 | 39067 ft | 552 kts | 65° |
| 2026-04-25 16:19 | 20.74055 | -50.64292 | 39064 ft | 552 kts | 65° |
| 2026-04-25 16:19 | 20.77107 | -50.56774 | 39065 ft | 552 kts | 65° |
| 2026-04-25 16:20 | 20.81665 | -50.45525 | 39067 ft | 552 kts | 65° |
| 2026-04-25 16:21 | 20.86238 | -50.34212 | 39067 ft | 553 kts | 65° |
| 2026-04-25 16:21 | 20.89284 | -50.26662 | 39066 ft | 553 kts | 65° |
| 2026-04-25 16:22 | 20.92326 | -50.19110 | 39066 ft | 553 kts | 65° |
| 2026-04-25 16:22 | 20.95367 | -50.11546 | 39063 ft | 553 kts | 65° |
| 2026-04-25 16:23 | 20.98404 | -50.03986 | 39068 ft | 553 kts | 65° |
| 2026-04-25 16:23 | 21.01010 | -49.96241 | 39066 ft | 555 kts | 75° |
| 2026-04-25 16:24 | 21.02860 | -49.88225 | 39077 ft | 555 kts | 76° |
| 2026-04-25 16:24 | 21.04643 | -49.80182 | 39070 ft | 555 kts | 76° |
| 2026-04-25 16:25 | 21.06465 | -49.72142 | 39068 ft | 556 kts | 76° |
| 2026-04-25 16:25 | 21.08321 | -49.64098 | 39064 ft | 556 kts | 76° |
| 2026-04-25 16:26 | 21.10180 | -49.56065 | 39068 ft | 557 kts | 76° |
| 2026-04-25 16:26 | 21.12024 | -49.48061 | 39068 ft | 557 kts | 76° |
| 2026-04-25 16:27 | 21.13873 | -49.40006 | 39065 ft | 557 kts | 76° |
| 2026-04-25 16:27 | 21.15716 | -49.31951 | 39067 ft | 557 kts | 76° |
| 2026-04-25 16:28 | 21.17558 | -49.23882 | 39067 ft | 557 kts | 76° |
| 2026-04-25 16:28 | 21.19397 | -49.15811 | 39068 ft | 558 kts | 76° |
| 2026-04-25 16:29 | 21.21231 | -49.07744 | 39039 ft | 558 kts | 76° |
| 2026-04-25 16:29 | 21.23060 | -48.99675 | 39063 ft | 556 kts | 76° |
| 2026-04-25 16:30 | 21.24870 | -48.91676 | 39064 ft | 555 kts | 76° |
| 2026-04-25 16:30 | 21.26683 | -48.83644 | 39068 ft | 554 kts | 76° |
| 2026-04-25 16:31 | 21.28493 | -48.75608 | 39070 ft | 554 kts | 75° |
| 2026-04-25 16:31 | 21.30296 | -48.67583 | 39070 ft | 554 kts | 76° |
| 2026-04-25 16:32 | 21.32095 | -48.59554 | 39069 ft | 554 kts | 76° |
| 2026-04-25 16:32 | 21.33890 | -48.51526 | 39073 ft | 554 kts | 76° |
| 2026-04-25 16:33 | 21.35682 | -48.43493 | 39073 ft | 554 kts | 76° |
| 2026-04-25 16:33 | 21.37469 | -48.35463 | 39076 ft | 554 kts | 76° |
| 2026-04-25 16:34 | 21.39254 | -48.27421 | 39074 ft | 554 kts | 76° |
| 2026-04-25 16:34 | 21.41036 | -48.19376 | 39076 ft | 554 kts | 76° |
| 2026-04-25 16:35 | 21.42815 | -48.11327 | 39074 ft | 555 kts | 76° |
| 2026-04-25 16:35 | 21.44590 | -48.03270 | 39074 ft | 555 kts | 75° |
| 2026-04-25 16:36 | 21.46063 | -47.96574 | 39073 ft | 555 kts | 76° |
| 2026-04-25 16:36 | 21.47832 | -47.88513 | 39075 ft | 555 kts | 76° |
| 2026-04-25 16:37 | 21.49596 | -47.80453 | 39077 ft | 555 kts | 76° |
| 2026-04-25 16:37 | 21.51356 | -47.72393 | 39077 ft | 555 kts | 76° |
| 2026-04-25 16:38 | 21.53114 | -47.64326 | 39073 ft | 554 kts | 76° |
| 2026-04-25 16:38 | 21.54866 | -47.56262 | 39079 ft | 554 kts | 75° |
| 2026-04-25 16:39 | 21.56615 | -47.48195 | 39075 ft | 554 kts | 75° |
| 2026-04-25 16:39 | 21.58358 | -47.40133 | 39075 ft | 554 kts | 75° |
| 2026-04-25 16:40 | 21.60097 | -47.32071 | 39075 ft | 554 kts | 75° |
| 2026-04-25 16:40 | 21.61830 | -47.24019 | 39078 ft | 553 kts | 75° |
| 2026-04-25 16:41 | 21.63559 | -47.15964 | 39079 ft | 553 kts | 75° |
| 2026-04-25 16:41 | 21.66144 | -47.03880 | 39078 ft | 553 kts | 75° |
| 2026-04-25 16:42 | 21.67862 | -46.95828 | 39077 ft | 553 kts | 75° |
| 2026-04-25 16:42 | 21.69576 | -46.87775 | 39076 ft | 552 kts | 75° |
| 2026-04-25 16:43 | 21.71284 | -46.79723 | 39075 ft | 552 kts | 75° |
| 2026-04-25 16:43 | 21.72978 | -46.71722 | 39078 ft | 552 kts | 75° |
| 2026-04-25 16:44 | 21.74679 | -46.63669 | 39080 ft | 552 kts | 75° |
| 2026-04-25 16:44 | 21.76376 | -46.55614 | 39085 ft | 552 kts | 75° |
| 2026-04-25 16:45 | 21.78069 | -46.47555 | 39081 ft | 552 kts | 75° |
| 2026-04-25 16:45 | 21.79758 | -46.39497 | 39084 ft | 552 kts | 76° |
| 2026-04-25 16:46 | 21.81442 | -46.31442 | 39091 ft | 552 kts | 76° |
| 2026-04-25 16:46 | 21.82842 | -46.24726 | 39082 ft | 552 kts | 76° |
| 2026-04-25 16:47 | 21.84804 | -46.15295 | 39081 ft | 553 kts | 76° |
| 2026-04-25 16:47 | 21.86481 | -46.07212 | 39085 ft | 553 kts | 76° |
| 2026-04-25 16:48 | 21.88151 | -45.99140 | 39086 ft | 553 kts | 76° |
| 2026-04-25 16:48 | 21.89819 | -45.91057 | 39087 ft | 553 kts | 76° |
| 2026-04-25 16:49 | 21.91485 | -45.82965 | 39087 ft | 553 kts | 76° |
| 2026-04-25 16:49 | 21.93146 | -45.74870 | 39087 ft | 554 kts | 76° |
| 2026-04-25 16:50 | 21.94805 | -45.66771 | 39086 ft | 554 kts | 76° |
| 2026-04-25 16:50 | 21.96460 | -45.58668 | 39088 ft | 554 kts | 76° |
| 2026-04-25 16:51 | 21.98111 | -45.50561 | 39086 ft | 554 kts | 76° |
| 2026-04-25 16:51 | 21.99481 | -45.43818 | 39088 ft | 554 kts | 76° |
| 2026-04-25 16:52 | 22.01392 | -45.34388 | 39087 ft | 554 kts | 76° |
| 2026-04-25 16:52 | 22.03034 | -45.26261 | 39084 ft | 555 kts | 76° |
| 2026-04-25 16:53 | 22.05488 | -45.14075 | 39089 ft | 555 kts | 76° |
| 2026-04-25 16:54 | 22.07120 | -45.05944 | 39090 ft | 555 kts | 76° |
| 2026-04-25 16:54 | 22.08748 | -44.97813 | 39087 ft | 555 kts | 76° |
| 2026-04-25 16:55 | 22.10373 | -44.89672 | 39085 ft | 555 kts | 76° |
| 2026-04-25 16:55 | 22.11996 | -44.81520 | 39095 ft | 556 kts | 76° |
| 2026-04-25 16:56 | 22.13615 | -44.73369 | 39086 ft | 556 kts | 76° |
| 2026-04-25 16:56 | 22.15229 | -44.65213 | 39086 ft | 556 kts | 76° |
| 2026-04-25 16:57 | 22.16842 | -44.57047 | 39091 ft | 556 kts | 76° |
| 2026-04-25 16:57 | 22.18449 | -44.48888 | 39095 ft | 556 kts | 76° |
| 2026-04-25 16:58 | 22.20051 | -44.40731 | 39085 ft | 556 kts | 76° |
| 2026-04-25 16:58 | 22.21650 | -44.32562 | 39085 ft | 556 kts | 76° |
| 2026-04-25 16:59 | 22.23246 | -44.24389 | 39094 ft | 556 kts | 76° |
| 2026-04-25 16:59 | 22.24838 | -44.16218 | 39095 ft | 556 kts | 76° |
| 2026-04-25 17:00 | 22.26426 | -44.08040 | 39092 ft | 557 kts | 76° |
| 2026-04-25 17:00 | 22.28010 | -43.99858 | 39093 ft | 557 kts | 76° |
| 2026-04-25 17:01 | 22.29591 | -43.91673 | 39093 ft | 557 kts | 76° |
| 2026-04-25 17:01 | 22.31168 | -43.83484 | 39095 ft | 557 kts | 76° |
| 2026-04-25 17:02 | 22.32743 | -43.75285 | 39097 ft | 558 kts | 76° |
| 2026-04-25 17:02 | 22.34314 | -43.67078 | 39095 ft | 558 kts | 76° |
| 2026-04-25 17:03 | 22.35872 | -43.58919 | 39095 ft | 558 kts | 76° |
| 2026-04-25 17:03 | 22.37435 | -43.50707 | 39098 ft | 558 kts | 76° |
| 2026-04-25 17:04 | 22.38995 | -43.42489 | 39096 ft | 558 kts | 76° |
| 2026-04-25 17:04 | 22.40551 | -43.34272 | 39097 ft | 558 kts | 76° |
| 2026-04-25 17:05 | 22.42103 | -43.26050 | 39100 ft | 558 kts | 76° |
| 2026-04-25 17:05 | 22.44423 | -43.13713 | 39100 ft | 558 kts | 76° |
| 2026-04-25 17:06 | 22.45964 | -43.05489 | 39101 ft | 558 kts | 76° |
| 2026-04-25 17:06 | 22.47501 | -42.97259 | 39093 ft | 558 kts | 76° |
| 2026-04-25 17:07 | 22.49034 | -42.89030 | 39098 ft | 558 kts | 76° |
| 2026-04-25 17:07 | 22.50564 | -42.80790 | 39099 ft | 558 kts | 76° |
| 2026-04-25 17:08 | 22.52090 | -42.72555 | 39096 ft | 558 kts | 76° |
| 2026-04-25 17:08 | 22.53611 | -42.64315 | 39098 ft | 559 kts | 76° |
| 2026-04-25 17:09 | 22.55126 | -42.56083 | 39098 ft | 559 kts | 76° |
| 2026-04-25 17:09 | 22.56639 | -42.47841 | 39099 ft | 559 kts | 76° |
| 2026-04-25 17:10 | 22.58149 | -42.39589 | 39097 ft | 559 kts | 76° |
| 2026-04-25 17:10 | 22.59652 | -42.31350 | 39100 ft | 559 kts | 76° |
| 2026-04-25 17:11 | 22.61154 | -42.23093 | 39102 ft | 558 kts | 76° |
| 2026-04-25 17:11 | 22.62649 | -42.14843 | 39100 ft | 558 kts | 76° |
| 2026-04-25 17:12 | 22.64139 | -42.06601 | 39100 ft | 558 kts | 76° |
| 2026-04-25 17:12 | 22.65626 | -41.98351 | 39101 ft | 558 kts | 76° |
| 2026-04-25 17:13 | 22.66609 | -41.92885 | 39100 ft | 558 kts | 76° |
| 2026-04-25 17:13 | 22.68585 | -41.81858 | 39103 ft | 558 kts | 76° |
| 2026-04-25 17:14 | 22.70060 | -41.73596 | 39104 ft | 558 kts | 76° |
| 2026-04-25 17:14 | 22.71529 | -41.65349 | 39101 ft | 558 kts | 76° |
| 2026-04-25 17:15 | 22.72984 | -41.57149 | 39099 ft | 558 kts | 76° |
| 2026-04-25 17:15 | 22.74445 | -41.48890 | 39103 ft | 558 kts | 76° |
| 2026-04-25 17:16 | 22.75902 | -41.40627 | 39107 ft | 558 kts | 76° |
| 2026-04-25 17:16 | 22.77354 | -41.32369 | 39103 ft | 558 kts | 76° |
| 2026-04-25 17:17 | 22.78805 | -41.24093 | 39102 ft | 559 kts | 76° |
| 2026-04-25 17:17 | 22.80250 | -41.15825 | 39110 ft | 559 kts | 76° |
| 2026-04-25 17:18 | 22.81691 | -41.07547 | 39103 ft | 559 kts | 76° |
| 2026-04-25 17:18 | 22.83129 | -40.99265 | 39103 ft | 559 kts | 76° |
| 2026-04-25 17:19 | 22.84563 | -40.90976 | 39105 ft | 559 kts | 76° |
| 2026-04-25 17:19 | 22.85994 | -40.82684 | 39105 ft | 560 kts | 76° |
| 2026-04-25 17:20 | 22.87421 | -40.74382 | 39105 ft | 560 kts | 76° |
| 2026-04-25 17:20 | 22.88844 | -40.66076 | 39107 ft | 560 kts | 76° |
| 2026-04-25 17:21 | 22.90263 | -40.57772 | 39104 ft | 561 kts | 76° |
| 2026-04-25 17:21 | 22.91679 | -40.49454 | 39106 ft | 561 kts | 76° |
| 2026-04-25 17:22 | 22.92614 | -40.43948 | 39104 ft | 561 kts | 76° |
| 2026-04-25 17:22 | 22.94261 | -40.34215 | 39108 ft | 561 kts | 76° |
| 2026-04-25 17:23 | 22.95895 | -40.24527 | 39105 ft | 561 kts | 76° |
| 2026-04-25 17:23 | 22.97295 | -40.16191 | 39105 ft | 562 kts | 76° |
| 2026-04-25 17:24 | 22.98690 | -40.07852 | 39106 ft | 562 kts | 77° |
| 2026-04-25 17:24 | 22.99197 | -40.00803 | 39105 ft | 567 kts | 89° |
| 2026-04-25 17:25 | 22.98035 | -39.90897 | 39106 ft | 568 kts | 104° |
| 2026-04-25 17:25 | 22.96366 | -39.84004 | 39112 ft | 568 kts | 105° |
| 2026-04-25 17:26 | 22.94286 | -39.75723 | 39105 ft | 569 kts | 105° |
| 2026-04-25 17:26 | 22.92262 | -39.67438 | 39108 ft | 569 kts | 105° |
| 2026-04-25 17:27 | 22.90278 | -39.59121 | 39108 ft | 569 kts | 104° |
| 2026-04-25 17:27 | 22.88622 | -39.52153 | 39106 ft | 569 kts | 104° |
| 2026-04-25 17:28 | 22.86316 | -39.42496 | 39106 ft | 569 kts | 104° |
| 2026-04-25 17:28 | 22.84322 | -39.34193 | 39106 ft | 569 kts | 105° |
| 2026-04-25 17:29 | 22.82322 | -39.25887 | 39104 ft | 569 kts | 105° |
| 2026-04-25 17:29 | 22.80318 | -39.17588 | 39102 ft | 569 kts | 105° |
| 2026-04-25 17:30 | 22.78312 | -39.09298 | 39107 ft | 569 kts | 105° |
| 2026-04-25 17:30 | 22.76301 | -39.01004 | 39107 ft | 569 kts | 105° |
| 2026-04-25 17:31 | 22.74284 | -38.92712 | 39109 ft | 569 kts | 105° |
| 2026-04-25 17:31 | 22.72267 | -38.84434 | 39105 ft | 569 kts | 105° |
| 2026-04-25 17:32 | 22.70244 | -38.76152 | 39104 ft | 569 kts | 105° |
| 2026-04-25 17:32 | 22.68217 | -38.67876 | 39108 ft | 569 kts | 105° |
| 2026-04-25 17:33 | 22.66186 | -38.59601 | 39104 ft | 569 kts | 105° |
| 2026-04-25 17:33 | 22.64152 | -38.51336 | 39103 ft | 569 kts | 105° |
| 2026-04-25 17:34 | 22.62111 | -38.43060 | 39110 ft | 569 kts | 105° |
| 2026-04-25 17:34 | 22.60069 | -38.34800 | 39108 ft | 569 kts | 105° |
| 2026-04-25 17:35 | 22.58021 | -38.26537 | 39106 ft | 568 kts | 105° |
| 2026-04-25 17:35 | 22.55969 | -38.18275 | 39110 ft | 568 kts | 105° |
| 2026-04-25 17:36 | 22.53912 | -38.10015 | 39111 ft | 568 kts | 105° |
| 2026-04-25 17:36 | 22.51854 | -38.01768 | 39106 ft | 568 kts | 105° |
| 2026-04-25 17:37 | 22.49803 | -37.93568 | 39108 ft | 568 kts | 105° |
| 2026-04-25 17:37 | 22.47735 | -37.85322 | 39105 ft | 568 kts | 105° |
| 2026-04-25 17:38 | 22.46012 | -37.78463 | 39107 ft | 568 kts | 105° |
| 2026-04-25 17:38 | 22.43587 | -37.68836 | 39105 ft | 568 kts | 105° |
| 2026-04-25 17:39 | 22.41506 | -37.60595 | 39105 ft | 568 kts | 105° |
| 2026-04-25 17:39 | 22.39423 | -37.52363 | 39105 ft | 568 kts | 105° |
| 2026-04-25 17:40 | 22.37333 | -37.44125 | 39105 ft | 568 kts | 105° |
| 2026-04-25 17:40 | 22.35242 | -37.35899 | 39104 ft | 568 kts | 105° |
| 2026-04-25 17:41 | 22.33145 | -37.27667 | 39103 ft | 568 kts | 105° |
| 2026-04-25 17:41 | 22.31044 | -37.19444 | 39106 ft | 568 kts | 105° |
| 2026-04-25 17:42 | 22.28939 | -37.11220 | 39106 ft | 568 kts | 105° |
| 2026-04-25 17:42 | 22.26829 | -37.02996 | 39106 ft | 568 kts | 105° |
| 2026-04-25 17:43 | 22.24718 | -36.94785 | 39100 ft | 568 kts | 105° |
| 2026-04-25 17:43 | 22.22598 | -36.86560 | 39105 ft | 568 kts | 105° |
| 2026-04-25 17:44 | 22.20478 | -36.78352 | 39102 ft | 568 kts | 105° |
| 2026-04-25 17:44 | 22.18352 | -36.70139 | 39107 ft | 568 kts | 105° |
| 2026-04-25 17:45 | 22.16942 | -36.64702 | 39099 ft | 568 kts | 105° |
| 2026-04-25 17:45 | 22.14090 | -36.53729 | 39105 ft | 568 kts | 105° |
| 2026-04-25 17:46 | 22.11951 | -36.45525 | 39099 ft | 568 kts | 105° |
| 2026-04-25 17:46 | 22.09810 | -36.37325 | 39103 ft | 568 kts | 105° |
| 2026-04-25 17:47 | 22.07661 | -36.29117 | 39106 ft | 568 kts | 105° |
| 2026-04-25 17:47 | 22.05511 | -36.20923 | 39101 ft | 568 kts | 105° |
| 2026-04-25 17:48 | 22.02289 | -36.08674 | 39107 ft | 568 kts | 105° |
| 2026-04-25 17:49 | 22.00122 | -36.00496 | 39102 ft | 568 kts | 107° |
| 2026-04-25 17:49 | 21.97475 | -35.92481 | 39108 ft | 567 kts | 111° |
| 2026-04-25 17:50 | 21.94628 | -35.84555 | 39103 ft | 567 kts | 112° |
| 2026-04-25 17:50 | 21.91782 | -35.76630 | 39103 ft | 567 kts | 111° |
| 2026-04-25 17:51 | 21.88968 | -35.68693 | 39105 ft | 567 kts | 111° |
| 2026-04-25 17:51 | 21.86166 | -35.60755 | 39104 ft | 567 kts | 111° |
| 2026-04-25 17:52 | 21.83362 | -35.52821 | 39100 ft | 567 kts | 111° |
| 2026-04-25 17:52 | 21.80552 | -35.44897 | 39101 ft | 567 kts | 111° |
| 2026-04-25 17:53 | 21.77737 | -35.36978 | 39102 ft | 567 kts | 111° |
| 2026-04-25 17:53 | 21.74916 | -35.29054 | 39100 ft | 567 kts | 111° |
| 2026-04-25 17:54 | 21.72093 | -35.21139 | 39101 ft | 567 kts | 111° |
| 2026-04-25 17:54 | 21.69286 | -35.13282 | 39099 ft | 567 kts | 111° |
| 2026-04-25 17:55 | 21.66459 | -35.05382 | 39097 ft | 566 kts | 112° |
| 2026-04-25 17:55 | 21.63623 | -34.97470 | 39094 ft | 566 kts | 112° |
| 2026-04-25 17:56 | 21.60789 | -34.89580 | 39102 ft | 566 kts | 112° |
| 2026-04-25 17:56 | 21.57953 | -34.81695 | 39098 ft | 566 kts | 112° |
| 2026-04-25 17:57 | 21.55114 | -34.73815 | 39098 ft | 566 kts | 112° |
| 2026-04-25 17:57 | 21.52270 | -34.65936 | 39096 ft | 566 kts | 112° |
| 2026-04-25 17:58 | 21.49424 | -34.58064 | 39099 ft | 565 kts | 112° |
| 2026-04-25 17:58 | 21.46574 | -34.50193 | 39099 ft | 565 kts | 112° |
| 2026-04-25 17:59 | 21.43720 | -34.42325 | 39096 ft | 565 kts | 112° |
| 2026-04-25 17:59 | 21.40866 | -34.34470 | 39094 ft | 565 kts | 112° |
| 2026-04-25 18:00 | 21.38006 | -34.26613 | 39093 ft | 565 kts | 112° |
| 2026-04-25 18:00 | 21.35145 | -34.18767 | 39096 ft | 565 kts | 112° |
| 2026-04-25 18:01 | 21.32297 | -34.10968 | 39090 ft | 565 kts | 112° |
| 2026-04-25 18:01 | 21.29429 | -34.03126 | 39097 ft | 565 kts | 112° |
| 2026-04-25 18:02 | 21.26557 | -33.95288 | 39099 ft | 565 kts | 112° |
| 2026-04-25 18:02 | 21.23681 | -33.87450 | 39090 ft | 565 kts | 112° |
| 2026-04-25 18:03 | 21.20804 | -33.79624 | 39088 ft | 564 kts | 112° |
| 2026-04-25 18:03 | 21.17925 | -33.71804 | 39088 ft | 564 kts | 112° |
| 2026-04-25 18:04 | 21.15043 | -33.63991 | 39090 ft | 564 kts | 112° |
| 2026-04-25 18:04 | 21.12157 | -33.56179 | 39091 ft | 564 kts | 112° |
| 2026-04-25 18:05 | 21.09271 | -33.48379 | 39086 ft | 563 kts | 112° |
| 2026-04-25 18:05 | 21.06383 | -33.40586 | 39084 ft | 563 kts | 112° |
| 2026-04-25 18:06 | 21.03492 | -33.32798 | 39088 ft | 563 kts | 112° |
| 2026-04-25 18:06 | 21.00598 | -33.25015 | 39086 ft | 563 kts | 112° |
| 2026-04-25 18:07 | 20.97701 | -33.17235 | 39085 ft | 563 kts | 112° |
| 2026-04-25 18:07 | 20.94799 | -33.09457 | 39083 ft | 563 kts | 112° |
| 2026-04-25 18:08 | 20.91898 | -33.01690 | 39085 ft | 563 kts | 112° |
| 2026-04-25 18:08 | 20.88989 | -32.93917 | 39081 ft | 562 kts | 112° |
| 2026-04-25 18:09 | 20.86078 | -32.86151 | 39080 ft | 562 kts | 112° |
| 2026-04-25 18:09 | 20.83168 | -32.78398 | 39079 ft | 562 kts | 112° |
| 2026-04-25 18:10 | 20.80249 | -32.70634 | 39079 ft | 562 kts | 113° |
| 2026-04-25 18:10 | 20.77330 | -32.62883 | 39076 ft | 562 kts | 113° |
| 2026-04-25 18:11 | 20.74426 | -32.55186 | 39078 ft | 562 kts | 113° |
| 2026-04-25 18:11 | 20.71497 | -32.47432 | 39076 ft | 562 kts | 113° |
| 2026-04-25 18:12 | 20.68568 | -32.39690 | 39074 ft | 562 kts | 113° |
| 2026-04-25 18:12 | 20.65636 | -32.31952 | 39074 ft | 562 kts | 113° |
| 2026-04-25 18:13 | 20.62703 | -32.24227 | 39076 ft | 562 kts | 113° |
| 2026-04-25 18:13 | 20.60242 | -32.17750 | 39074 ft | 562 kts | 113° |
| 2026-04-25 18:14 | 20.55852 | -32.06220 | 39079 ft | 561 kts | 113° |
| 2026-04-25 18:14 | 20.52910 | -31.98511 | 39076 ft | 561 kts | 113° |
| 2026-04-25 18:15 | 20.49964 | -31.90801 | 39072 ft | 561 kts | 113° |
| 2026-04-25 18:15 | 20.47018 | -31.83102 | 39067 ft | 560 kts | 113° |
| 2026-04-25 18:16 | 20.44072 | -31.75416 | 39065 ft | 560 kts | 113° |
| 2026-04-25 18:17 | 20.39417 | -31.64001 | 39063 ft | 559 kts | 117° |
| 2026-04-25 18:17 | 20.36052 | -31.56540 | 39065 ft | 559 kts | 117° |
| 2026-04-25 18:18 | 20.32698 | -31.49078 | 39065 ft | 559 kts | 117° |
| 2026-04-25 18:18 | 20.29386 | -31.41592 | 39066 ft | 558 kts | 116° |
| 2026-04-25 18:19 | 20.26097 | -31.34114 | 39063 ft | 558 kts | 116° |
| 2026-04-25 18:19 | 20.22794 | -31.26613 | 39061 ft | 558 kts | 116° |
| 2026-04-25 18:20 | 20.19493 | -31.19139 | 39063 ft | 558 kts | 116° |
| 2026-04-25 18:20 | 20.16186 | -31.11668 | 39061 ft | 558 kts | 116° |
| 2026-04-25 18:21 | 20.12878 | -31.04205 | 39055 ft | 558 kts | 116° |
| 2026-04-25 18:21 | 20.09587 | -30.96789 | 39059 ft | 558 kts | 116° |
| 2026-04-25 18:22 | 20.06277 | -30.89341 | 39057 ft | 557 kts | 116° |
| 2026-04-25 18:22 | 20.02961 | -30.81890 | 39059 ft | 557 kts | 116° |
| 2026-04-25 18:23 | 19.99645 | -30.74447 | 39058 ft | 557 kts | 116° |
| 2026-04-25 18:23 | 19.96326 | -30.67009 | 39055 ft | 557 kts | 116° |
| 2026-04-25 18:24 | 19.93007 | -30.59582 | 39053 ft | 556 kts | 116° |
| 2026-04-25 18:24 | 19.89686 | -30.52158 | 39052 ft | 556 kts | 116° |
| 2026-04-25 18:25 | 19.86367 | -30.44749 | 39051 ft | 555 kts | 116° |
| 2026-04-25 18:25 | 19.83045 | -30.37344 | 39055 ft | 555 kts | 117° |
| 2026-04-25 18:26 | 19.79720 | -30.29943 | 39053 ft | 555 kts | 117° |
| 2026-04-25 18:26 | 19.76397 | -30.22555 | 39051 ft | 554 kts | 117° |
| 2026-04-25 18:27 | 19.73073 | -30.15175 | 39051 ft | 554 kts | 117° |
| 2026-04-25 18:27 | 19.69747 | -30.07799 | 39052 ft | 554 kts | 117° |
| 2026-04-25 18:28 | 19.66420 | -30.00433 | 39050 ft | 554 kts | 117° |
| 2026-04-25 18:28 | 19.63091 | -29.93072 | 39049 ft | 553 kts | 117° |
| 2026-04-25 18:29 | 19.58114 | -29.82083 | 39051 ft | 553 kts | 117° |
| 2026-04-25 18:30 | 19.51444 | -29.67389 | 39046 ft | 553 kts | 117° |
| 2026-04-25 18:30 | 19.48107 | -29.60054 | 39045 ft | 553 kts | 117° |
| 2026-04-25 18:31 | 19.44765 | -29.52716 | 39045 ft | 553 kts | 117° |
| 2026-04-25 18:31 | 19.41423 | -29.45387 | 39043 ft | 552 kts | 117° |
| 2026-04-25 18:32 | 19.38078 | -29.38061 | 39045 ft | 552 kts | 117° |
| 2026-04-25 18:32 | 19.34732 | -29.30744 | 39039 ft | 552 kts | 117° |
| 2026-04-25 18:33 | 19.31386 | -29.23435 | 39050 ft | 551 kts | 117° |
| 2026-04-25 18:33 | 19.28041 | -29.16138 | 39036 ft | 551 kts | 117° |
| 2026-04-25 18:34 | 19.24694 | -29.08844 | 39030 ft | 551 kts | 117° |
| 2026-04-25 18:34 | 19.21367 | -29.01604 | 39043 ft | 550 kts | 117° |
| 2026-04-25 18:35 | 19.18000 | -28.94287 | 39043 ft | 550 kts | 117° |
| 2026-04-25 18:35 | 19.14648 | -28.87012 | 39039 ft | 549 kts | 117° |
| 2026-04-25 18:36 | 19.11300 | -28.79752 | 39036 ft | 549 kts | 117° |
| 2026-04-25 18:36 | 19.07949 | -28.72499 | 39031 ft | 549 kts | 117° |
| 2026-04-25 18:37 | 19.04597 | -28.65251 | 39035 ft | 548 kts | 117° |
| 2026-04-25 18:37 | 19.01247 | -28.58015 | 39028 ft | 548 kts | 117° |
| 2026-04-25 18:38 | 18.97893 | -28.50781 | 39030 ft | 548 kts | 117° |
| 2026-04-25 18:38 | 18.94562 | -28.43604 | 39030 ft | 547 kts | 117° |
| 2026-04-25 18:39 | 18.91209 | -28.36389 | 39023 ft | 547 kts | 117° |
| 2026-04-25 18:39 | 18.87855 | -28.29181 | 39025 ft | 547 kts | 117° |
| 2026-04-25 18:40 | 18.84501 | -28.21982 | 39025 ft | 546 kts | 117° |
| 2026-04-25 18:40 | 18.81135 | -28.14768 | 39035 ft | 551 kts | 117° |
| 2026-04-25 18:41 | 18.77743 | -28.07506 | 39026 ft | 550 kts | 117° |
| 2026-04-25 18:41 | 18.74384 | -28.00318 | 39016 ft | 544 kts | 118° |
| 2026-04-25 18:42 | 18.72149 | -27.95542 | 39015 ft | 542 kts | 118° |
| 2026-04-25 18:42 | 18.67711 | -27.86074 | 39024 ft | 540 kts | 118° |
| 2026-04-25 18:43 | 18.64382 | -27.78981 | 39026 ft | 540 kts | 118° |
| 2026-04-25 18:43 | 18.61048 | -27.71885 | 39024 ft | 541 kts | 118° |
| 2026-04-25 18:44 | 18.57701 | -27.64771 | 39024 ft | 542 kts | 118° |
| 2026-04-25 18:44 | 18.54347 | -27.57650 | 39026 ft | 543 kts | 118° |
| 2026-04-25 18:45 | 18.50985 | -27.50520 | 39024 ft | 544 kts | 118° |
| 2026-04-25 18:45 | 18.47619 | -27.43390 | 39020 ft | 544 kts | 118° |
| 2026-04-25 18:46 | 18.44244 | -27.36250 | 39017 ft | 544 kts | 118° |
| 2026-04-25 18:46 | 18.40868 | -27.29115 | 39017 ft | 545 kts | 118° |
| 2026-04-25 18:47 | 18.37487 | -27.21979 | 39019 ft | 544 kts | 118° |
| 2026-04-25 18:47 | 18.34105 | -27.14847 | 39017 ft | 544 kts | 118° |
| 2026-04-25 18:48 | 18.30724 | -27.07729 | 39015 ft | 544 kts | 118° |
| 2026-04-25 18:48 | 18.27366 | -27.00665 | 39017 ft | 543 kts | 118° |
| 2026-04-25 18:49 | 18.23984 | -26.93560 | 39016 ft | 543 kts | 118° |
| 2026-04-25 18:49 | 18.20578 | -26.86413 | 39016 ft | 543 kts | 118° |
| 2026-04-25 18:50 | 18.17219 | -26.79374 | 39014 ft | 542 kts | 118° |
| 2026-04-25 18:50 | 18.13833 | -26.72285 | 39012 ft | 542 kts | 118° |
| 2026-04-25 18:51 | 18.11569 | -26.67548 | 39011 ft | 542 kts | 118° |
| 2026-04-25 18:51 | 18.07059 | -26.58127 | 39014 ft | 542 kts | 118° |
| 2026-04-25 18:52 | 18.03664 | -26.51044 | 39015 ft | 542 kts | 118° |
| 2026-04-25 18:52 | 18.00268 | -26.43966 | 39010 ft | 542 kts | 118° |
| 2026-04-25 18:53 | 17.96868 | -26.36894 | 39009 ft | 543 kts | 118° |
| 2026-04-25 18:53 | 17.93464 | -26.29821 | 39007 ft | 543 kts | 118° |
| 2026-04-25 18:54 | 17.88358 | -26.19216 | 39008 ft | 542 kts | 118° |
| 2026-04-25 18:55 | 17.84953 | -26.12155 | 39008 ft | 542 kts | 119° |
| 2026-04-25 18:55 | 17.81547 | -26.05097 | 39006 ft | 542 kts | 119° |
| 2026-04-25 18:56 | 17.78094 | -25.98081 | 39007 ft | 541 kts | 120° |
| 2026-04-25 18:56 | 17.74482 | -25.91172 | 39004 ft | 540 kts | 121° |
| 2026-04-25 18:57 | 17.70839 | -25.84281 | 39004 ft | 539 kts | 121° |
| 2026-04-25 18:57 | 17.67227 | -25.77395 | 39003 ft | 539 kts | 121° |
| 2026-04-25 18:58 | 17.63632 | -25.70509 | 38999 ft | 538 kts | 121° |
| 2026-04-25 18:58 | 17.58242 | -25.60183 | 38998 ft | 538 kts | 121° |
| 2026-04-25 18:59 | 17.51077 | -25.46496 | 38993 ft | 537 kts | 121° |
| 2026-04-25 19:00 | 17.45686 | -25.36217 | 38992 ft | 537 kts | 121° |
| 2026-04-25 19:01 | 17.40293 | -25.25951 | 38994 ft | 536 kts | 121° |
| 2026-04-25 19:01 | 17.36694 | -25.19110 | 39003 ft | 536 kts | 121° |
| 2026-04-25 19:02 | 17.31871 | -25.09952 | 38992 ft | 537 kts | 121° |
| 2026-04-25 19:03 | 17.27070 | -25.00849 | 38990 ft | 537 kts | 121° |
| 2026-04-25 19:03 | 17.22874 | -24.92903 | 38991 ft | 537 kts | 121° |
| 2026-04-25 19:04 | 17.17450 | -24.82645 | 38986 ft | 537 kts | 121° |
| 2026-04-25 19:05 | 17.10211 | -24.68980 | 38988 ft | 537 kts | 121° |
| 2026-04-25 19:06 | 17.06590 | -24.62156 | 38985 ft | 537 kts | 121° |
| 2026-04-25 19:06 | 17.01158 | -24.51930 | 38980 ft | 536 kts | 121° |
| 2026-04-25 19:07 | 16.95728 | -24.41723 | 38970 ft | 536 kts | 121° |
| 2026-04-25 19:08 | 16.90296 | -24.31528 | 38968 ft | 535 kts | 121° |
| 2026-04-25 19:09 | 16.83665 | -24.19105 | 38968 ft | 535 kts | 121° |
| 2026-04-25 19:10 | 16.77646 | -24.07847 | 38971 ft | 534 kts | 122° |
| 2026-04-25 19:10 | 16.74026 | -24.01084 | 38972 ft | 534 kts | 122° |
| 2026-04-25 19:11 | 16.70406 | -23.94330 | 38970 ft | 533 kts | 122° |
| 2026-04-25 19:11 | 16.66786 | -23.87581 | 38965 ft | 533 kts | 122° |
| 2026-04-25 19:12 | 16.63168 | -23.80843 | 38963 ft | 532 kts | 122° |
| 2026-04-25 19:12 | 16.59548 | -23.74107 | 38959 ft | 532 kts | 122° |
| 2026-04-25 19:13 | 16.55931 | -23.67384 | 38960 ft | 531 kts | 122° |
| 2026-04-25 19:13 | 16.52313 | -23.60665 | 38967 ft | 531 kts | 122° |
| 2026-04-25 19:14 | 16.48700 | -23.53963 | 38967 ft | 530 kts | 122° |
| 2026-04-25 19:14 | 16.45085 | -23.47262 | 38948 ft | 530 kts | 122° |
| 2026-04-25 19:15 | 16.41476 | -23.40579 | 38944 ft | 529 kts | 122° |
| 2026-04-25 19:15 | 16.37868 | -23.33905 | 38941 ft | 529 kts | 122° |
| 2026-04-25 19:16 | 16.34261 | -23.27238 | 38959 ft | 528 kts | 122° |
| 2026-04-25 19:16 | 16.30650 | -23.20571 | 38961 ft | 528 kts | 122° |
| 2026-04-25 19:17 | 16.27068 | -23.13962 | 38952 ft | 528 kts | 122° |
| 2026-04-25 19:17 | 16.23458 | -23.07310 | 38946 ft | 528 kts | 122° |
| 2026-04-25 19:18 | 16.19845 | -23.00657 | 38944 ft | 528 kts | 122° |
| 2026-04-25 19:18 | 16.16231 | -22.94006 | 38940 ft | 528 kts | 122° |
| 2026-04-25 19:19 | 16.12619 | -22.87361 | 38942 ft | 528 kts | 122° |
| 2026-04-25 19:19 | 16.09052 | -22.80671 | 38941 ft | 528 kts | 121° |
| 2026-04-25 19:20 | 16.05516 | -22.73983 | 38944 ft | 528 kts | 121° |
| 2026-04-25 19:20 | 16.01971 | -22.67294 | 38945 ft | 528 kts | 121° |
| 2026-04-25 19:21 | 15.98419 | -22.60615 | 38946 ft | 528 kts | 121° |
| 2026-04-25 19:21 | 15.93085 | -22.50605 | 38950 ft | 527 kts | 121° |
| 2026-04-25 19:22 | 15.89532 | -22.43947 | 38948 ft | 527 kts | 121° |
| 2026-04-25 19:23 | 15.84197 | -22.33956 | 38948 ft | 527 kts | 121° |
| 2026-04-25 19:23 | 15.78858 | -22.23973 | 38947 ft | 527 kts | 121° |
| 2026-04-25 19:24 | 15.75297 | -22.17321 | 38944 ft | 527 kts | 121° |
| 2026-04-25 19:25 | 15.68168 | -22.04024 | 38940 ft | 527 kts | 121° |
| 2026-04-25 19:25 | 15.64603 | -21.97384 | 38941 ft | 527 kts | 121° |
| 2026-04-25 19:26 | 15.61058 | -21.90785 | 38940 ft | 527 kts | 121° |
| 2026-04-25 19:26 | 15.57488 | -21.84149 | 38938 ft | 527 kts | 121° |
| 2026-04-25 19:27 | 15.54496 | -21.78589 | 38936 ft | 527 kts | 121° |
| 2026-04-25 19:27 | 15.50348 | -21.70890 | 38938 ft | 526 kts | 121° |
| 2026-04-25 19:28 | 15.46775 | -21.64265 | 38935 ft | 526 kts | 121° |
| 2026-04-25 19:28 | 15.43204 | -21.57648 | 38935 ft | 526 kts | 121° |
| 2026-04-25 19:29 | 15.39627 | -21.51028 | 38932 ft | 526 kts | 121° |
| 2026-04-25 19:29 | 15.36055 | -21.44423 | 38934 ft | 525 kts | 121° |
| 2026-04-25 19:30 | 15.32481 | -21.37819 | 38931 ft | 525 kts | 121° |
| 2026-04-25 19:30 | 15.28909 | -21.31224 | 38928 ft | 525 kts | 121° |
| 2026-04-25 19:31 | 15.25337 | -21.24636 | 38930 ft | 524 kts | 121° |
| 2026-04-25 19:31 | 15.21765 | -21.18053 | 38928 ft | 524 kts | 121° |
| 2026-04-25 19:32 | 15.18192 | -21.11475 | 38926 ft | 524 kts | 121° |
| 2026-04-25 19:32 | 15.15829 | -21.07127 | 38924 ft | 524 kts | 121° |
| 2026-04-25 19:33 | 15.11048 | -20.98338 | 38924 ft | 523 kts | 121° |
| 2026-04-25 19:33 | 15.07500 | -20.91823 | 38925 ft | 523 kts | 121° |
| 2026-04-25 19:34 | 15.03929 | -20.85270 | 38924 ft | 523 kts | 121° |
| 2026-04-25 19:34 | 15.00336 | -20.78682 | 38923 ft | 522 kts | 121° |
| 2026-04-25 19:35 | 14.96784 | -20.72176 | 38924 ft | 522 kts | 121° |
| 2026-04-25 19:35 | 14.93215 | -20.65643 | 38922 ft | 522 kts | 121° |
| 2026-04-25 19:36 | 14.89645 | -20.59116 | 38922 ft | 521 kts | 121° |
| 2026-04-25 19:36 | 14.86076 | -20.52594 | 38920 ft | 521 kts | 121° |
| 2026-04-25 19:37 | 14.82508 | -20.46081 | 38918 ft | 521 kts | 121° |
| 2026-04-25 19:37 | 14.78940 | -20.39572 | 38917 ft | 520 kts | 121° |
| 2026-04-25 19:38 | 14.75374 | -20.33071 | 38915 ft | 520 kts | 121° |
| 2026-04-25 19:38 | 14.71811 | -20.26582 | 38914 ft | 519 kts | 121° |
| 2026-04-25 19:39 | 14.68456 | -20.19970 | 38909 ft | 521 kts | 115° |
| 2026-04-25 19:39 | 14.66055 | -20.12914 | 38919 ft | 521 kts | 109° |
| 2026-04-25 19:40 | 14.63845 | -20.05775 | 38909 ft | 521 kts | 109° |
| 2026-04-25 19:40 | 14.61611 | -19.98656 | 38909 ft | 521 kts | 109° |
| 2026-04-25 19:41 | 14.59337 | -19.91542 | 38909 ft | 521 kts | 109° |
| 2026-04-25 19:41 | 14.57824 | -19.86839 | 38909 ft | 521 kts | 109° |
| 2026-04-25 19:42 | 14.54762 | -19.77331 | 38908 ft | 521 kts | 109° |
| 2026-04-25 19:42 | 14.52474 | -19.70230 | 38908 ft | 521 kts | 109° |
| 2026-04-25 19:43 | 14.50188 | -19.63136 | 38907 ft | 521 kts | 109° |
| 2026-04-25 19:43 | 14.47913 | -19.56085 | 38898 ft | 521 kts | 109° |
| 2026-04-25 19:44 | 14.45625 | -19.49001 | 38902 ft | 521 kts | 109° |
| 2026-04-25 19:44 | 14.43332 | -19.41910 | 38904 ft | 520 kts | 109° |
| 2026-04-25 19:45 | 14.41040 | -19.34833 | 38903 ft | 520 kts | 109° |
| 2026-04-25 19:45 | 14.38747 | -19.27756 | 38896 ft | 520 kts | 109° |
| 2026-04-25 19:46 | 14.36453 | -19.20688 | 38895 ft | 520 kts | 109° |
| 2026-04-25 19:46 | 14.34156 | -19.13618 | 38894 ft | 520 kts | 109° |
| 2026-04-25 19:47 | 14.31860 | -19.06558 | 38896 ft | 520 kts | 109° |
| 2026-04-25 19:47 | 14.29560 | -18.99493 | 38890 ft | 519 kts | 109° |
| 2026-04-25 19:48 | 14.27293 | -18.92536 | 38205 ft | 508 kts | 109° |
| 2026-04-25 19:48 | 14.26179 | -18.89119 | 37475 ft | 501 kts | 109° |
| 2026-04-25 19:48 | 14.25068 | -18.85718 | 36757 ft | 500 kts | 109° |
| 2026-04-25 19:49 | 14.24333 | -18.83469 | 36268 ft | 500 kts | 109° |
| 2026-04-25 19:49 | 14.23585 | -18.81178 | 35804 ft | 499 kts | 109° |
| 2026-04-25 19:49 | 14.22126 | -18.76717 | 35111 ft | 493 kts | 108° |
| 2026-04-25 19:49 | 14.20668 | -18.72259 | 34389 ft | 488 kts | 108° |
| 2026-04-25 19:50 | 14.18873 | -18.66776 | 33443 ft | 483 kts | 108° |
| 2026-04-25 19:50 | 14.17806 | -18.63515 | 32886 ft | 479 kts | 108° |
| 2026-04-25 19:50 | 14.16745 | -18.60278 | 32345 ft | 475 kts | 108° |
| 2026-04-25 19:51 | 14.15693 | -18.57072 | 31834 ft | 471 kts | 108° |
| 2026-04-25 19:51 | 14.14649 | -18.53889 | 31317 ft | 467 kts | 107° |
| 2026-04-25 19:51 | 14.13612 | -18.50729 | 30813 ft | 464 kts | 107° |
| 2026-04-25 19:51 | 14.12582 | -18.47592 | 30281 ft | 461 kts | 107° |
| 2026-04-25 19:52 | 14.11560 | -18.44479 | 29733 ft | 458 kts | 107° |
| 2026-04-25 19:52 | 14.10541 | -18.41377 | 29150 ft | 455 kts | 107° |
| 2026-04-25 19:52 | 14.09528 | -18.38296 | 28609 ft | 451 kts | 107° |
| 2026-04-25 19:52 | 14.08527 | -18.35252 | 28086 ft | 447 kts | 107° |
| 2026-04-25 19:53 | 14.07532 | -18.32228 | 27576 ft | 444 kts | 107° |
| 2026-04-25 19:53 | 14.06546 | -18.29232 | 27075 ft | 440 kts | 108° |
| 2026-04-25 19:53 | 14.05567 | -18.26260 | 26578 ft | 436 kts | 108° |
| 2026-04-25 19:53 | 14.04598 | -18.23319 | 26084 ft | 433 kts | 108° |
| 2026-04-25 19:54 | 14.03633 | -18.20394 | 25599 ft | 430 kts | 108° |
| 2026-04-25 19:54 | 14.02675 | -18.17489 | 25100 ft | 427 kts | 108° |
| 2026-04-25 19:54 | 14.01723 | -18.14601 | 24613 ft | 425 kts | 108° |
| 2026-04-25 19:54 | 14.01094 | -18.12695 | 24282 ft | 423 kts | 108° |
| 2026-04-25 19:55 | 13.99834 | -18.08879 | 23656 ft | 420 kts | 108° |
| 2026-04-25 19:55 | 13.98909 | -18.06079 | 23138 ft | 410 kts | 108° |
| 2026-04-25 19:55 | 13.98064 | -18.03308 | 22619 ft | 402 kts | 101° |
| 2026-04-25 19:55 | 13.97977 | -18.00464 | 22153 ft | 397 kts | 80° |
| 2026-04-25 19:56 | 13.98715 | -17.97751 | 21705 ft | 392 kts | 64° |
| 2026-04-25 19:56 | 14.00102 | -17.95379 | 21227 ft | 384 kts | 52° |
| 2026-04-25 19:56 | 14.01701 | -17.93187 | 20793 ft | 382 kts | 50° |
| 2026-04-25 19:56 | 14.03323 | -17.91031 | 20343 ft | 381 kts | 50° |
| 2026-04-25 19:57 | 14.04949 | -17.88876 | 19881 ft | 380 kts | 50° |
| 2026-04-25 19:57 | 14.06567 | -17.86718 | 19437 ft | 380 kts | 50° |
| 2026-04-25 19:57 | 14.08176 | -17.84552 | 18960 ft | 381 kts | 51° |
| 2026-04-25 19:57 | 14.09773 | -17.82389 | 18499 ft | 379 kts | 51° |
| 2026-04-25 19:58 | 14.11359 | -17.80227 | 18008 ft | 377 kts | 51° |
| 2026-04-25 19:58 | 14.12933 | -17.78077 | 17496 ft | 374 kts | 51° |
| 2026-04-25 19:58 | 14.14490 | -17.75946 | 17021 ft | 371 kts | 51° |
| 2026-04-25 19:58 | 14.16034 | -17.73831 | 16563 ft | 367 kts | 51° |
| 2026-04-25 19:59 | 14.17560 | -17.71740 | 16111 ft | 364 kts | 51° |
| 2026-04-25 19:59 | 14.19074 | -17.69665 | 15673 ft | 361 kts | 52° |
| 2026-04-25 19:59 | 14.20575 | -17.67606 | 15213 ft | 357 kts | 52° |
| 2026-04-25 19:59 | 14.22061 | -17.65568 | 14788 ft | 355 kts | 52° |
| 2026-04-25 20:00 | 14.23537 | -17.63544 | 14356 ft | 352 kts | 52° |
| 2026-04-25 20:00 | 14.24507 | -17.62214 | 14065 ft | 350 kts | 52° |
| 2026-04-25 20:00 | 14.26438 | -17.59564 | 13466 ft | 347 kts | 52° |
| 2026-04-25 20:00 | 14.27884 | -17.57580 | 12992 ft | 344 kts | 53° |
| 2026-04-25 20:01 | 14.30732 | -17.53669 | 12131 ft | 337 kts | 53° |
| 2026-04-25 20:01 | 14.32134 | -17.51742 | 11877 ft | 335 kts | 53° |
| 2026-04-25 20:01 | 14.33538 | -17.49814 | 11867 ft | 340 kts | 53° |
| 2026-04-25 20:02 | 14.34969 | -17.47846 | 11842 ft | 345 kts | 53° |
| 2026-04-25 20:02 | 14.36416 | -17.45857 | 11852 ft | 347 kts | 53° |
| 2026-04-25 20:02 | 14.37846 | -17.43890 | 11828 ft | 332 kts | 53° |
| 2026-04-25 20:02 | 14.39192 | -17.42039 | 11829 ft | 316 kts | 53° |
| 2026-04-25 20:03 | 14.40499 | -17.40240 | 11830 ft | 311 kts | 53° |
| 2026-04-25 20:03 | 14.41787 | -17.38468 | 11831 ft | 308 kts | 53° |
| 2026-04-25 20:03 | 14.43068 | -17.36705 | 11833 ft | 304 kts | 53° |
| 2026-04-25 20:03 | 14.44322 | -17.34979 | 11824 ft | 297 kts | 53° |
| 2026-04-25 20:04 | 14.45558 | -17.33277 | 11831 ft | 295 kts | 53° |
| 2026-04-25 20:04 | 14.46762 | -17.31577 | 11837 ft | 291 kts | 60° |
| 2026-04-25 20:04 | 14.47308 | -17.29596 | 11855 ft | 290 kts | 92° |
| 2026-04-25 20:04 | 14.46879 | -17.27590 | 11849 ft | 288 kts | 118° |
| 2026-04-25 20:05 | 14.45662 | -17.25988 | 11846 ft | 284 kts | 145° |
| 2026-04-25 20:05 | 14.43908 | -17.25117 | 11843 ft | 280 kts | 171° |
| 2026-04-25 20:05 | 14.41981 | -17.24947 | 11843 ft | 276 kts | 181° |
| 2026-04-25 20:05 | 14.40044 | -17.24968 | 11846 ft | 282 kts | 183° |
| 2026-04-25 20:06 | 14.38069 | -17.25022 | 11845 ft | 286 kts | 184° |
| 2026-04-25 20:06 | 14.36077 | -17.25085 | 11837 ft | 286 kts | 184° |
| 2026-04-25 20:06 | 14.34097 | -17.25151 | 11828 ft | 284 kts | 184° |
| 2026-04-25 20:06 | 14.32126 | -17.25219 | 11829 ft | 283 kts | 184° |
| 2026-04-25 20:07 | 14.30164 | -17.25288 | 11834 ft | 282 kts | 184° |
| 2026-04-25 20:07 | 14.28210 | -17.25356 | 11834 ft | 281 kts | 184° |
| 2026-04-25 20:07 | 14.26257 | -17.25425 | 11830 ft | 281 kts | 184° |
| 2026-04-25 20:07 | 14.24306 | -17.25494 | 11847 ft | 281 kts | 184° |
| 2026-04-25 20:08 | 14.22347 | -17.25566 | 11848 ft | 282 kts | 184° |
| 2026-04-25 20:08 | 14.20366 | -17.25641 | 11858 ft | 288 kts | 184° |
| 2026-04-25 20:08 | 14.18360 | -17.25718 | 11852 ft | 293 kts | 184° |
| 2026-04-25 20:08 | 14.16325 | -17.25797 | 11845 ft | 293 kts | 184° |
| 2026-04-25 20:09 | 14.14273 | -17.25880 | 11852 ft | 296 kts | 184° |
| 2026-04-25 20:09 | 14.12181 | -17.25966 | 11842 ft | 298 kts | 184° |
| 2026-04-25 20:09 | 14.10106 | -17.26052 | 11837 ft | 298 kts | 184° |
| 2026-04-25 20:09 | 14.08020 | -17.26140 | 11478 ft | 303 kts | 184° |
| 2026-04-25 20:10 | 14.05924 | -17.26232 | 10765 ft | 295 kts | 184° |
| 2026-04-25 20:10 | 14.03923 | -17.26333 | 10061 ft | 281 kts | 183° |
| 2026-04-25 20:10 | 14.01991 | -17.26449 | 9346 ft | 275 kts | 184° |
| 2026-04-25 20:10 | 14.00127 | -17.26574 | 8809 ft | 270 kts | 184° |
| 2026-04-25 20:11 | 13.98205 | -17.26706 | 8365 ft | 280 kts | 184° |
| 2026-04-25 20:11 | 13.96248 | -17.26739 | 7866 ft | 283 kts | 171° |
| 2026-04-25 20:11 | 13.94406 | -17.26003 | 7395 ft | 288 kts | 144° |
| 2026-04-25 20:11 | 13.93089 | -17.24499 | 7044 ft | 283 kts | 117° |
| 2026-04-25 20:12 | 13.92492 | -17.22598 | 6700 ft | 277 kts | 99° |
| 2026-04-25 20:12 | 13.92181 | -17.20649 | 6362 ft | 276 kts | 96° |
| 2026-04-25 20:12 | 13.91900 | -17.18671 | 6010 ft | 276 kts | 96° |
| 2026-04-25 20:12 | 13.91809 | -17.18037 | 5887 ft | 276 kts | 96° |
| 2026-04-25 20:13 | 13.91337 | -17.14819 | 5284 ft | 273 kts | 96° |
| 2026-04-25 20:13 | 13.91039 | -17.12847 | 4949 ft | 274 kts | 94° |
| 2026-04-25 20:13 | 13.91177 | -17.10973 | 4849 ft | 256 kts | 66° |
| 2026-04-25 20:13 | 13.92109 | -17.09490 | 4847 ft | 249 kts | 40° |
| 2026-04-25 20:14 | 13.93535 | -17.08526 | 4842 ft | 246 kts | 22° |
| 2026-04-25 20:14 | 13.95185 | -17.08122 | 4851 ft | 245 kts | 3° |
| 2026-04-25 20:14 | 13.96894 | -17.08064 | 4848 ft | 247 kts | 1° |
| 2026-04-25 20:14 | 13.98614 | -17.08029 | 4843 ft | 248 kts | 1° |
| 2026-04-25 20:15 | 14.00343 | -17.07997 | 4847 ft | 248 kts | 1° |
| 2026-04-25 20:15 | 14.02068 | -17.07962 | 4847 ft | 248 kts | 1° |
| 2026-04-25 20:15 | 14.03796 | -17.07925 | 4838 ft | 249 kts | 1° |
| 2026-04-25 20:15 | 14.05524 | -17.07884 | 4844 ft | 248 kts | 1° |
| 2026-04-25 20:16 | 14.07256 | -17.07842 | 4835 ft | 249 kts | 1° |
| 2026-04-25 20:16 | 14.08988 | -17.07797 | 4845 ft | 249 kts | 1° |
| 2026-04-25 20:16 | 14.10723 | -17.07752 | 4846 ft | 250 kts | 1° |
| 2026-04-25 20:16 | 14.12463 | -17.07706 | 4839 ft | 250 kts | 1° |
| 2026-04-25 20:17 | 14.14204 | -17.07659 | 4840 ft | 250 kts | 1° |
| 2026-04-25 20:17 | 14.15944 | -17.07612 | 4844 ft | 250 kts | 1° |
| 2026-04-25 20:17 | 14.17688 | -17.07564 | 4847 ft | 250 kts | 1° |
| 2026-04-25 20:17 | 14.19431 | -17.07515 | 4845 ft | 250 kts | 1° |
| 2026-04-25 20:18 | 14.21168 | -17.07467 | 4842 ft | 250 kts | 1° |
| 2026-04-25 20:18 | 14.22904 | -17.07419 | 4837 ft | 250 kts | 1° |
| 2026-04-25 20:18 | 14.24643 | -17.07370 | 4834 ft | 249 kts | 1° |
| 2026-04-25 20:18 | 14.26374 | -17.07323 | 4830 ft | 249 kts | 1° |
| 2026-04-25 20:19 | 14.28105 | -17.07299 | 4840 ft | 248 kts | 0° |
| 2026-04-25 20:19 | 14.29829 | -17.07196 | 4833 ft | 248 kts | 5° |
| 2026-04-25 20:19 | 14.31545 | -17.07048 | 4832 ft | 247 kts | 2° |
| 2026-04-25 20:19 | 14.33264 | -17.06988 | 4831 ft | 246 kts | 0° |
| 2026-04-25 20:20 | 14.34964 | -17.06981 | 4834 ft | 243 kts | 359° |
| 2026-04-25 20:20 | 14.36644 | -17.06994 | 4831 ft | 241 kts | 359° |
| 2026-04-25 20:20 | 14.38283 | -17.07010 | 4832 ft | 235 kts | 359° |
| 2026-04-25 20:20 | 14.39922 | -17.07025 | 4876 ft | 231 kts | 359° |
| 2026-04-25 20:21 | 14.41518 | -17.07041 | 4694 ft | 233 kts | 359° |
| 2026-04-25 20:21 | 14.43110 | -17.07057 | 4412 ft | 222 kts | 359° |
| 2026-04-25 20:21 | 14.44591 | -17.07070 | 4160 ft | 203 kts | 359° |
| 2026-04-25 20:21 | 14.45935 | -17.07083 | 3904 ft | 180 kts | 360° |
| 2026-04-25 20:22 | 14.47138 | -17.07094 | 3697 ft | 173 kts | 359° |
| 2026-04-25 20:22 | 14.47533 | -17.07098 | 3654 ft | 177 kts | 359° |
| 2026-04-25 20:22 | 14.49567 | -17.07117 | 3273 ft | 180 kts | 0° |
| 2026-04-25 20:22 | 14.50830 | -17.07128 | 3043 ft | 182 kts | 360° |
| 2026-04-25 20:23 | 14.52085 | -17.07141 | 2813 ft | 179 kts | 360° |
| 2026-04-25 20:23 | 14.53325 | -17.07152 | 2586 ft | 178 kts | 359° |
| 2026-04-25 20:23 | 14.54570 | -17.07165 | 2357 ft | 178 kts | 0° |
| 2026-04-25 20:23 | 14.55760 | -17.07176 | 2122 ft | 165 kts | 0° |
| 2026-04-25 20:24 | 14.56895 | -17.07187 | 1926 ft | 159 kts | 0° |
| 2026-04-25 20:24 | 14.57984 | -17.07197 | 1738 ft | 151 kts | 0° |
| 2026-04-25 20:24 | 14.58997 | -17.07206 | 1541 ft | 145 kts | 0° |
| 2026-04-25 20:24 | 14.59988 | -17.07216 | 1351 ft | 139 kts | 1° |
| 2026-04-25 20:25 | 14.60920 | -17.07226 | 1182 ft | 130 kts | 0° |
| 2026-04-25 20:25 | 14.61805 | -17.07232 | 1015 ft | 126 kts | 359° |
| 2026-04-25 20:25 | 14.62698 | -17.07241 | 868 ft | 131 kts | 359° |
| 2026-04-25 20:25 | 14.63605 | -17.07249 | 695 ft | 130 kts | 359° |
| 2026-04-25 20:26 | 14.64498 | -17.07256 | 516 ft | 126 kts | 359° |
| 2026-04-25 20:26 | 14.65367 | -17.07265 | 363 ft | 124 kts | 358° |
| 2026-04-25 20:26 | 14.66205 | -17.07275 | 282 ft | 113 kts | 0° |
| 2026-04-25 20:26 | 14.66878 | -17.07281 | 279 ft | 75 kts | 359° |
| 2026-04-25 20:27 | 14.67294 | -17.07285 | 275 ft | 55 kts | 360° |
| 2026-04-25 20:27 | 14.67553 | -17.07289 | 272 ft | 24 kts | 359° |
| 2026-04-25 20:27 | 14.67650 | -17.07270 | 271 ft | 10 kts | 25° |
| 2026-04-25 20:27 | 14.67718 | -17.07235 | 271 ft | 12 kts | 27° |
| 2026-04-25 20:28 | 14.67777 | -17.07203 | 271 ft | 2 kts | 30° |
| 2026-04-25 20:28 | 14.67784 | -17.07199 | 271 ft | 3 kts | 30° |
| 2026-04-25 20:28 | 14.67792 | -17.07194 | 271 ft | 2 kts | 30° |
| 2026-04-25 20:28 | 14.67813 | -17.07180 | 271 ft | 5 kts | 38° |
| 2026-04-25 20:29 | 14.67827 | -17.07146 | 271 ft | 6 kts | 85° |
| 2026-04-25 20:29 | 14.67804 | -17.07111 | 271 ft | 7 kts | 153° |
| 2026-04-25 20:29 | 14.67754 | -17.07102 | 272 ft | 8 kts | 172° |
| 2026-04-25 20:29 | 14.67690 | -17.07099 | 272 ft | 10 kts | 179° |
| 2026-04-25 20:30 | 14.67638 | -17.07098 | 273 ft | 4 kts | 179° |
| 2026-04-25 20:30 | 14.67606 | -17.07097 | 273 ft | 2 kts | 178° |
| 2026-04-25 20:31 | 14.67588 | -17.07095 | 273 ft | 11 kts | 172° |
| 2026-04-25 20:31 | 14.67543 | -17.07034 | 273 ft | 9 kts | 93° |